Wetterdaten: Samstag, 02.02.2013
Datum Zeit Temp. Aussen +5cm Feuchte Auss BlattFeu 1 Luftdruck Regen Sonnenschein UV Solar Windben
02.02.2013 00:00 3,1 C 1,8 C 98 % 14 lf 995,2 hPa 0,0 l/m 0 min 0,0 UV-I 0 W/m 2,6 km/h (1 Bft)
02.02.2013 00:02 3,1 C 1,8 C 98 % 14 lf 995,1 hPa 0,0 l/m 0 min 0,0 UV-I 0 W/m 2,6 km/h (1 Bft)
02.02.2013 00:06 3,1 C 1,8 C 98 % 14 lf 995,1 hPa 0,0 l/m 0 min 0,0 UV-I 0 W/m 7,7 km/h (2 Bft)
02.02.2013 00:08 3,1 C 1,8 C 98 % 14 lf 995,1 hPa 0,0 l/m 0 min 0,0 UV-I 0 W/m 0,0 km/h (0 Bft)
02.02.2013 00:10 3,1 C 1,8 C 98 % 14 lf 995,2 hPa 0,0 l/m 0 min 0,0 UV-I 0 W/m 0,0 km/h (0 Bft)
02.02.2013 00:12 3,1 C 1,8 C 98 % 14 lf 995,3 hPa 0,0 l/m 0 min 0,0 UV-I 0 W/m 5,1 km/h (1 Bft)
02.02.2013 00:14 3,1 C 1,8 C 98 % 14 lf 995,3 hPa 0,0 l/m 0 min 0,0 UV-I 0 W/m 2,6 km/h (1 Bft)
02.02.2013 00:16 3,1 C 1,8 C 98 % 14 lf 995,3 hPa 0,0 l/m 0 min 0,0 UV-I 0 W/m 2,6 km/h (1 Bft)
02.02.2013 00:18 3,1 C 1,8 C 98 % 14 lf 995,4 hPa 0,0 l/m 0 min 0,0 UV-I 0 W/m 2,6 km/h (1 Bft)
02.02.2013 00:20 3,1 C 1,8 C 98 % 14 lf 995,4 hPa 0,0 l/m 0 min 0,0 UV-I 0 W/m 2,6 km/h (1 Bft)
02.02.2013 00:22 3,1 C 1,8 C 98 % 14 lf 995,4 hPa 0,0 l/m 0 min 0,0 UV-I 0 W/m 7,7 km/h (2 Bft)
02.02.2013 00:24 3,1 C 1,8 C 98 % 14 lf 995,5 hPa 0,0 l/m 0 min 0,0 UV-I 0 W/m 0,0 km/h (0 Bft)
02.02.2013 00:26 3,1 C 1,8 C 98 % 14 lf 995,5 hPa 0,0 l/m 0 min 0,0 UV-I 0 W/m 0,0 km/h (0 Bft)
02.02.2013 00:28 3,1 C 1,8 C 98 % 14 lf 995,5 hPa 0,0 l/m 0 min 0,0 UV-I 0 W/m 10,3 km/h (2 Bft)
02.02.2013 00:30 3,1 C 1,8 C 98 % 14 lf 995,5 hPa 0,0 l/m 0 min 0,0 UV-I 0 W/m 0,0 km/h (0 Bft)
02.02.2013 00:32 3,1 C 1,8 C 98 % 13 lf 995,5 hPa 0,0 l/m 0 min 0,0 UV-I 0 W/m 0,0 km/h (0 Bft)
02.02.2013 00:34 3,1 C 1,8 C 98 % 13 lf 995,5 hPa 0,0 l/m 0 min 0,0 UV-I 0 W/m 0,0 km/h (0 Bft)
02.02.2013 00:36 3,1 C 1,8 C 98 % 13 lf 995,6 hPa 0,0 l/m 0 min 0,0 UV-I 0 W/m 0,0 km/h (0 Bft)
02.02.2013 00:38 3,1 C 1,8 C 98 % 13 lf 995,6 hPa 0,0 l/m 0 min 0,0 UV-I 0 W/m 0,0 km/h (0 Bft)
02.02.2013 00:40 3,0 C 1,8 C 98 % 13 lf 995,6 hPa 0,0 l/m 0 min 0,0 UV-I 0 W/m 0,0 km/h (0 Bft)
02.02.2013 00:42 3,0 C 1,8 C 98 % 13 lf 995,6 hPa 0,0 l/m 0 min 0,0 UV-I 0 W/m 0,0 km/h (0 Bft)
02.02.2013 00:44 3,0 C 1,8 C 98 % 13 lf 995,6 hPa 0,0 l/m 0 min 0,0 UV-I 0 W/m 0,0 km/h (0 Bft)
02.02.2013 00:46 3,0 C 1,8 C 98 % 13 lf 995,6 hPa 0,0 l/m 0 min 0,0 UV-I 0 W/m 0,0 km/h (0 Bft)
02.02.2013 00:48 3,0 C 1,8 C 98 % 13 lf 995,6 hPa 0,0 l/m 0 min 0,0 UV-I 0 W/m 0,0 km/h (0 Bft)
02.02.2013 00:50 3,0 C 1,8 C 98 % 13 lf 995,6 hPa 0,0 l/m 0 min 0,0 UV-I 0 W/m 0,0 km/h (0 Bft)
02.02.2013 00:52 3,0 C 1,8 C 98 % 13 lf 995,6 hPa 0,0 l/m 0 min 0,0 UV-I 0 W/m 0,0 km/h (0 Bft)
02.02.2013 00:54 3,0 C 1,8 C 98 % 13 lf 995,7 hPa 0,0 l/m 0 min 0,0 UV-I 0 W/m 0,0 km/h (0 Bft)
02.02.2013 00:56 2,9 C 1,8 C 98 % 13 lf 995,7 hPa 0,0 l/m 0 min 0,0 UV-I 0 W/m 0,0 km/h (0 Bft)
02.02.2013 00:58 3,0 C 1,8 C 98 % 13 lf 995,6 hPa 0,0 l/m 0 min 0,0 UV-I 0 W/m 0,0 km/h (0 Bft)
02.02.2013 01:00 3,0 C 1,8 C 98 % 13 lf 995,7 hPa 0,0 l/m 0 min 0,0 UV-I 0 W/m 0,0 km/h (0 Bft)
02.02.2013 01:02 2,9 C 1,8 C 98 % 13 lf 995,7 hPa 0,0 l/m 0 min 0,0 UV-I 0 W/m 7,7 km/h (2 Bft)
02.02.2013 01:06 3,0 C 1,8 C 98 % 13 lf 995,8 hPa 0,0 l/m 0 min 0,0 UV-I 0 W/m 7,7 km/h (2 Bft)
02.02.2013 01:08 3,0 C 1,8 C 98 % 13 lf 995,9 hPa 0,0 l/m 0 min 0,0 UV-I 0 W/m 10,3 km/h (2 Bft)
02.02.2013 01:10 3,0 C 1,8 C 98 % 13 lf 995,9 hPa 0,0 l/m 0 min 0,0 UV-I 0 W/m 5,1 km/h (1 Bft)
02.02.2013 01:12 3,0 C 1,8 C 98 % 13 lf 995,9 hPa 0,0 l/m 0 min 0,0 UV-I 0 W/m 10,3 km/h (2 Bft)
02.02.2013 01:14 3,0 C 1,8 C 98 % 13 lf 995,9 hPa 0,0 l/m 0 min 0,0 UV-I 0 W/m 0,0 km/h (0 Bft)
02.02.2013 01:16 3,0 C 1,8 C 98 % 13 lf 996,0 hPa 0,0 l/m 0 min 0,0 UV-I 0 W/m 7,7 km/h (2 Bft)
02.02.2013 01:18 3,0 C 1,8 C 98 % 13 lf 996,0 hPa 0,0 l/m 0 min 0,0 UV-I 0 W/m 7,7 km/h (2 Bft)
02.02.2013 01:20 3,0 C 1,8 C 98 % 13 lf 996,0 hPa 0,0 l/m 0 min 0,0 UV-I 0 W/m 2,6 km/h (1 Bft)
02.02.2013 01:22 3,0 C 1,8 C 98 % 13 lf 996,0 hPa 0,0 l/m 0 min 0,0 UV-I 0 W/m 5,1 km/h (1 Bft)
02.02.2013 01:24 3,0 C 1,8 C 98 % 13 lf 996,0 hPa 0,0 l/m 0 min 0,0 UV-I 0 W/m 7,7 km/h (2 Bft)
02.02.2013 01:26 3,0 C 1,8 C 98 % 13 lf 996,0 hPa 0,0 l/m 0 min 0,0 UV-I 0 W/m 0,0 km/h (0 Bft)
02.02.2013 01:28 3,0 C 1,8 C 98 % 13 lf 996,0 hPa 0,0 l/m 0 min 0,0 UV-I 0 W/m 5,1 km/h (1 Bft)
02.02.2013 01:30 3,0 C 1,8 C 98 % 13 lf 996,0 hPa 0,0 l/m 0 min 0,0 UV-I 0 W/m 0,0 km/h (0 Bft)
02.02.2013 01:32 3,0 C 1,8 C 98 % 13 lf 996,0 hPa 0,0 l/m 0 min 0,0 UV-I 0 W/m 5,1 km/h (1 Bft)
02.02.2013 01:34 3,0 C 1,8 C 98 % 12 lf 996,0 hPa 0,0 l/m 0 min 0,0 UV-I 0 W/m 0,0 km/h (0 Bft)
02.02.2013 01:36 3,0 C 1,8 C 98 % 12 lf 996,0 hPa 0,0 l/m 0 min 0,0 UV-I 0 W/m 12,9 km/h (3 Bft)
02.02.2013 01:38 3,1 C 1,8 C 98 % 12 lf 996,0 hPa 0,0 l/m 0 min 0,0 UV-I 0 W/m 0,0 km/h (0 Bft)
02.02.2013 01:40 3,1 C 1,8 C 98 % 12 lf 996,0 hPa 0,0 l/m 0 min 0,0 UV-I 0 W/m 2,6 km/h (1 Bft)
02.02.2013 01:42 3,0 C 1,8 C 98 % 12 lf 995,9 hPa 0,0 l/m 0 min 0,0 UV-I 0 W/m 0,0 km/h (0 Bft)
02.02.2013 01:44 3,1 C 1,8 C 98 % 12 lf 996,0 hPa 0,0 l/m 0 min 0,0 UV-I 0 W/m 0,0 km/h (0 Bft)
02.02.2013 01:46 3,1 C 1,8 C 98 % 12 lf 996,0 hPa 0,0 l/m 0 min 0,0 UV-I 0 W/m 7,7 km/h (2 Bft)
02.02.2013 01:48 3,1 C 1,8 C 99 % 12 lf 996,0 hPa 0,0 l/m 0 min 0,0 UV-I 0 W/m 2,6 km/h (1 Bft)
02.02.2013 01:50 3,1 C 1,8 C 98 % 12 lf 996,0 hPa 0,0 l/m 0 min 0,0 UV-I 0 W/m 2,6 km/h (1 Bft)
02.02.2013 01:52 3,1 C 1,8 C 98 % 12 lf 996,0 hPa 0,0 l/m 0 min 0,0 UV-I 0 W/m 10,3 km/h (2 Bft)
02.02.2013 01:54 3,1 C 1,8 C 99 % 12 lf 996,0 hPa 0,0 l/m 0 min 0,0 UV-I 0 W/m 0,0 km/h (0 Bft)
02.02.2013 01:56 3,1 C 1,8 C 99 % 12 lf 996,0 hPa 0,0 l/m 0 min 0,0 UV-I 0 W/m 7,7 km/h (2 Bft)
02.02.2013 01:58 3,1 C 1,8 C 99 % 12 lf 996,0 hPa 0,0 l/m 0 min 0,0 UV-I 0 W/m 0,0 km/h (0 Bft)
02.02.2013 02:00 3,1 C 1,8 C 99 % 12 lf 996,0 hPa 0,0 l/m 0 min 0,0 UV-I 0 W/m 0,0 km/h (0 Bft)
02.02.2013 02:02 3,1 C 1,8 C 99 % 11 lf 996,0 hPa 0,0 l/m 0 min 0,0 UV-I 0 W/m 2,6 km/h (1 Bft)
02.02.2013 02:06 3,1 C 1,8 C 99 % 11 lf 996,0 hPa 0,0 l/m 0 min 0,0 UV-I 0 W/m 10,3 km/h (2 Bft)
02.02.2013 02:08 3,1 C 1,8 C 99 % 11 lf 996,0 hPa 0,0 l/m 0 min 0,0 UV-I 0 W/m 10,3 km/h (2 Bft)
02.02.2013 02:10 3,1 C 1,8 C 99 % 11 lf 996,0 hPa 0,0 l/m 0 min 0,0 UV-I 0 W/m 0,0 km/h (0 Bft)
02.02.2013 02:12 3,1 C 1,8 C 99 % 10 lf 996,0 hPa 0,0 l/m 0 min 0,0 UV-I 0 W/m 2,6 km/h (1 Bft)
02.02.2013 02:14 3,1 C 1,8 C 99 % 10 lf 996,0 hPa 0,0 l/m 0 min 0,0 UV-I 0 W/m 0,0 km/h (0 Bft)
02.02.2013 02:16 3,1 C 1,8 C 99 % 10 lf 996,0 hPa 0,0 l/m 0 min 0,0 UV-I 0 W/m 5,1 km/h (1 Bft)
02.02.2013 02:18 3,1 C 1,8 C 99 % 10 lf 996,0 hPa 0,0 l/m 0 min 0,0 UV-I 0 W/m 2,6 km/h (1 Bft)
02.02.2013 02:20 3,1 C 1,8 C 99 % 10 lf 996,1 hPa 0,0 l/m 0 min 0,0 UV-I 0 W/m 5,1 km/h (1 Bft)
02.02.2013 02:22 3,1 C 1,8 C 99 % 9 lf 996,1 hPa 0,0 l/m 0 min 0,0 UV-I 0 W/m 7,7 km/h (2 Bft)
02.02.2013 02:24 3,1 C 1,8 C 99 % 9 lf 996,1 hPa 0,0 l/m 0 min 0,0 UV-I 0 W/m 5,1 km/h (1 Bft)
02.02.2013 02:26 3,1 C 1,8 C 99 % 9 lf 996,1 hPa 0,0 l/m 0 min 0,0 UV-I 0 W/m 5,1 km/h (1 Bft)
02.02.2013 02:28 3,2 C 1,8 C 99 % 9 lf 996,1 hPa 0,0 l/m 0 min 0,0 UV-I 0 W/m 5,1 km/h (1 Bft)
02.02.2013 02:30 3,2 C 1,8 C 99 % 8 lf 996,2 hPa 0,0 l/m 0 min 0,0 UV-I 0 W/m 10,3 km/h (2 Bft)
02.02.2013 02:32 3,2 C 1,8 C 99 % 8 lf 996,1 hPa 0,0 l/m 0 min 0,0 UV-I 0 W/m 5,1 km/h (1 Bft)
02.02.2013 02:34 3,2 C 1,8 C 99 % 8 lf 996,1 hPa 0,0 l/m 0 min 0,0 UV-I 0 W/m 5,1 km/h (1 Bft)
02.02.2013 02:36 3,2 C 2,3 C 99 % 8 lf 996,1 hPa 0,0 l/m 0 min 0,0 UV-I 0 W/m 0,0 km/h (0 Bft)
02.02.2013 02:38 3,2 C 2,3 C 99 % 7 lf 996,1 hPa 0,0 l/m 0 min 0,0 UV-I 0 W/m 10,3 km/h (2 Bft)
02.02.2013 02:40 3,2 C 2,3 C 99 % 7 lf 996,1 hPa 0,0 l/m 0 min 0,0 UV-I 0 W/m 7,7 km/h (2 Bft)
02.02.2013 02:42 3,2 C 2,3 C 99 % 7 lf 996,1 hPa 0,0 l/m 0 min 0,0 UV-I 0 W/m 2,6 km/h (1 Bft)
02.02.2013 02:44 3,2 C 2,3 C 99 % 7 lf 996,2 hPa 0,0 l/m 0 min 0,0 UV-I 0 W/m 0,0 km/h (0 Bft)
02.02.2013 02:46 3,2 C 2,3 C 99 % 6 lf 996,3 hPa 0,0 l/m 0 min 0,0 UV-I 0 W/m 5,1 km/h (1 Bft)
02.02.2013 02:48 3,2 C 2,3 C 99 % 6 lf 996,3 hPa 0,0 l/m 0 min 0,0 UV-I 0 W/m 7,7 km/h (2 Bft)
02.02.2013 02:50 3,2 C 2,3 C 99 % 6 lf 996,4 hPa 0,0 l/m 0 min 0,0 UV-I 0 W/m 0,0 km/h (0 Bft)
02.02.2013 02:52 3,2 C 2,3 C 99 % 5 lf 996,4 hPa 0,0 l/m 0 min 0,0 UV-I 0 W/m 0,0 km/h (0 Bft)
02.02.2013 02:54 3,2 C 2,3 C 99 % 5 lf 996,4 hPa 0,0 l/m 0 min 0,0 UV-I 0 W/m 10,3 km/h (2 Bft)
02.02.2013 02:56 3,2 C 2,3 C 99 % 5 lf 996,5 hPa 0,0 l/m 0 min 0,0 UV-I 0 W/m 7,7 km/h (2 Bft)
02.02.2013 02:58 3,2 C 2,3 C 99 % 4 lf 996,4 hPa 0,0 l/m 0 min 0,0 UV-I 0 W/m 5,1 km/h (1 Bft)
02.02.2013 03:00 3,2 C 2,3 C 99 % 4 lf 996,4 hPa 0,0 l/m 0 min 0,0 UV-I 0 W/m 10,3 km/h (2 Bft)
02.02.2013 03:02 3,2 C 1,8 C 99 % 4 lf 996,4 hPa 0,0 l/m 0 min 0,0 UV-I 0 W/m 0,0 km/h (0 Bft)
02.02.2013 03:06 3,2 C 1,8 C 99 % 4 lf 996,5 hPa 0,0 l/m 0 min 0,0 UV-I 0 W/m 10,3 km/h (2 Bft)
02.02.2013 03:08 3,2 C 1,8 C 99 % 4 lf 996,5 hPa 0,0 l/m 0 min 0,0 UV-I 0 W/m 10,3 km/h (2 Bft)
02.02.2013 03:10 3,2 C 1,8 C 99 % 4 lf 996,6 hPa 0,0 l/m 0 min 0,0 UV-I 0 W/m 7,7 km/h (2 Bft)
02.02.2013 03:12 3,2 C 1,8 C 99 % 4 lf 996,5 hPa 0,0 l/m 0 min 0,0 UV-I 0 W/m 7,7 km/h (2 Bft)
02.02.2013 03:14 3,2 C 1,8 C 99 % 4 lf 996,5 hPa 0,0 l/m 0 min 0,0 UV-I 0 W/m 7,7 km/h (2 Bft)
02.02.2013 03:16 3,2 C 1,8 C 99 % 4 lf 996,6 hPa 0,0 l/m 0 min 0,0 UV-I 0 W/m 0,0 km/h (0 Bft)
02.02.2013 03:18 3,2 C 1,8 C 99 % 3 lf 996,6 hPa 0,0 l/m 0 min 0,0 UV-I 0 W/m 10,3 km/h (2 Bft)
02.02.2013 03:20 3,2 C 2,3 C 99 % 3 lf 996,6 hPa 0,0 l/m 0 min 0,0 UV-I 0 W/m 5,1 km/h (1 Bft)
02.02.2013 03:22 3,2 C 2,3 C 99 % 3 lf 996,7 hPa 0,0 l/m 0 min 0,0 UV-I 0 W/m 5,1 km/h (1 Bft)
02.02.2013 03:24 3,2 C 2,3 C 99 % 3 lf 996,7 hPa 0,0 l/m 0 min 0,0 UV-I 0 W/m 5,1 km/h (1 Bft)
02.02.2013 03:26 3,2 C 2,3 C 99 % 3 lf 996,7 hPa 0,0 l/m 0 min 0,0 UV-I 0 W/m 10,3 km/h (2 Bft)
02.02.2013 03:28 3,2 C 2,3 C 99 % 2 lf 996,7 hPa 0,0 l/m 0 min 0,0 UV-I 0 W/m 10,3 km/h (2 Bft)
02.02.2013 03:30 3,2 C 2,3 C 99 % 2 lf 996,7 hPa 0,0 l/m 0 min 0,0 UV-I 0 W/m 10,3 km/h (2 Bft)
02.02.2013 03:32 3,3 C 2,3 C 99 % 1 lf 996,7 hPa 0,0 l/m 0 min 0,0 UV-I 0 W/m 12,9 km/h (3 Bft)
02.02.2013 03:34 3,3 C 2,3 C 99 % 1 lf 996,6 hPa 0,0 l/m 0 min 0,0 UV-I 0 W/m 10,3 km/h (2 Bft)
02.02.2013 03:36 3,3 C 2,3 C 99 % 1 lf 996,8 hPa 0,0 l/m 0 min 0,0 UV-I 0 W/m 2,6 km/h (1 Bft)
02.02.2013 03:38 3,3 C 2,3 C 99 % 1 lf 996,8 hPa 0,0 l/m 0 min 0,0 UV-I 0 W/m 2,6 km/h (1 Bft)
02.02.2013 03:40 3,3 C 2,3 C 99 % 1 lf 996,8 hPa 0,0 l/m 0 min 0,0 UV-I 0 W/m 10,3 km/h (2 Bft)
02.02.2013 03:42 3,3 C 2,3 C 99 % 1 lf 996,8 hPa 0,0 l/m 0 min 0,0 UV-I 0 W/m 7,7 km/h (2 Bft)
02.02.2013 03:44 3,3 C 2,3 C 99 % 1 lf 996,9 hPa 0,0 l/m 0 min 0,0 UV-I 0 W/m 5,1 km/h (1 Bft)
02.02.2013 03:46 3,3 C 2,3 C 99 % 1 lf 996,9 hPa 0,0 l/m 0 min 0,0 UV-I 0 W/m 5,1 km/h (1 Bft)
02.02.2013 03:48 3,3 C 2,3 C 99 % 1 lf 996,8 hPa 0,0 l/m 0 min 0,0 UV-I 0 W/m 12,9 km/h (3 Bft)
02.02.2013 03:50 3,3 C 2,3 C 99 % 2 lf 996,8 hPa 0,0 l/m 0 min 0,0 UV-I 0 W/m 7,7 km/h (2 Bft)
02.02.2013 03:52 3,3 C 2,3 C 99 % 2 lf 996,9 hPa 0,0 l/m 0 min 0,0 UV-I 0 W/m 7,7 km/h (2 Bft)
02.02.2013 03:54 3,3 C 2,3 C 99 % 2 lf 996,9 hPa 0,0 l/m 0 min 0,0 UV-I 0 W/m 18,0 km/h (3 Bft)
02.02.2013 03:56 3,3 C 2,3 C 99 % 4 lf 996,9 hPa 0,0 l/m 0 min 0,0 UV-I 0 W/m 2,6 km/h (1 Bft)
02.02.2013 03:58 3,4 C 2,3 C 99 % 5 lf 996,9 hPa 0,0 l/m 0 min 0,0 UV-I 0 W/m 5,1 km/h (1 Bft)
02.02.2013 04:00 3,4 C 2,3 C 99 % 11 lf 996,9 hPa 0,0 l/m 0 min 0,0 UV-I 0 W/m 12,9 km/h (3 Bft)
02.02.2013 04:02 3,4 C 2,3 C 99 % 11 lf 997,1 hPa 0,0 l/m 0 min 0,0 UV-I 0 W/m 10,3 km/h (2 Bft)
02.02.2013 04:06 3,4 C 2,3 C 99 % 11 lf 997,2 hPa 0,0 l/m 0 min 0,0 UV-I 0 W/m 5,1 km/h (1 Bft)
02.02.2013 04:08 3,4 C 2,3 C 99 % 11 lf 997,1 hPa 0,0 l/m 0 min 0,0 UV-I 0 W/m 2,6 km/h (1 Bft)
02.02.2013 04:10 3,4 C 2,3 C 99 % 11 lf 997,1 hPa 0,0 l/m 0 min 0,0 UV-I 0 W/m 10,3 km/h (2 Bft)
02.02.2013 04:12 3,4 C 2,3 C 99 % 8 lf 997,2 hPa 0,0 l/m 0 min 0,0 UV-I 0 W/m 12,9 km/h (3 Bft)
02.02.2013 04:14 3,4 C 2,3 C 99 % 6 lf 997,1 hPa 0,0 l/m 0 min 0,0 UV-I 0 W/m 7,7 km/h (2 Bft)
02.02.2013 04:16 3,4 C 2,3 C 99 % 4 lf 997,2 hPa 0,0 l/m 0 min 0,0 UV-I 0 W/m 10,3 km/h (2 Bft)
02.02.2013 04:18 3,4 C 2,3 C 99 % 4 lf 997,2 hPa 0,0 l/m 0 min 0,0 UV-I 0 W/m 2,6 km/h (1 Bft)
02.02.2013 04:20 3,4 C 2,3 C 99 % 3 lf 997,3 hPa 0,0 l/m 0 min 0,0 UV-I 0 W/m 5,1 km/h (1 Bft)
02.02.2013 04:22 3,4 C 2,3 C 99 % 3 lf 997,3 hPa 0,0 l/m 0 min 0,0 UV-I 0 W/m 5,1 km/h (1 Bft)
02.02.2013 04:24 3,4 C 2,3 C 99 % 2 lf 997,3 hPa 0,0 l/m 0 min 0,0 UV-I 0 W/m 0,0 km/h (0 Bft)
02.02.2013 04:26 3,4 C 2,3 C 99 % 1 lf 997,3 hPa 0,0 l/m 0 min 0,0 UV-I 0 W/m 2,6 km/h (1 Bft)
02.02.2013 04:28 3,4 C 2,3 C 99 % 1 lf 997,3 hPa 0,0 l/m 0 min 0,0 UV-I 0 W/m 0,0 km/h (0 Bft)
02.02.2013 04:30 3,4 C 2,3 C 99 % 0 lf 997,3 hPa 0,0 l/m 0 min 0,0 UV-I 0 W/m 0,0 km/h (0 Bft)
02.02.2013 04:32 3,4 C 2,3 C 99 % 0 lf 997,4 hPa 0,0 l/m 0 min 0,0 UV-I 0 W/m 7,7 km/h (2 Bft)
02.02.2013 04:34 3,4 C 2,3 C 99 % 0 lf 997,4 hPa 0,0 l/m 0 min 0,0 UV-I 0 W/m 5,1 km/h (1 Bft)
02.02.2013 04:36 3,4 C 2,3 C 99 % 0 lf 997,3 hPa 0,0 l/m 0 min 0,0 UV-I 0 W/m 5,1 km/h (1 Bft)
02.02.2013 04:38 3,4 C 2,3 C 99 % 0 lf 997,3 hPa 0,0 l/m 0 min 0,0 UV-I 0 W/m 5,1 km/h (1 Bft)
02.02.2013 04:40 3,4 C 2,3 C 99 % 0 lf 997,3 hPa 0,0 l/m 0 min 0,0 UV-I 0 W/m 10,3 km/h (2 Bft)
02.02.2013 04:42 3,4 C 2,3 C 99 % 0 lf 997,3 hPa 0,0 l/m 0 min 0,0 UV-I 0 W/m 0,0 km/h (0 Bft)
02.02.2013 04:44 3,4 C 2,3 C 99 % 0 lf 997,4 hPa 0,0 l/m 0 min 0,0 UV-I 0 W/m 0,0 km/h (0 Bft)
02.02.2013 04:46 3,4 C 2,3 C 99 % 0 lf 997,4 hPa 0,0 l/m 0 min 0,0 UV-I 0 W/m 0,0 km/h (0 Bft)
02.02.2013 04:48 3,4 C 2,3 C 99 % 0 lf 997,4 hPa 0,0 l/m 0 min 0,0 UV-I 0 W/m 5,1 km/h (1 Bft)
02.02.2013 04:50 3,4 C 2,3 C 99 % 0 lf 997,4 hPa 0,0 l/m 0 min 0,0 UV-I 0 W/m 5,1 km/h (1 Bft)
02.02.2013 04:52 3,3 C 2,3 C 99 % 0 lf 997,4 hPa 0,0 l/m 0 min 0,0 UV-I 0 W/m 5,1 km/h (1 Bft)
02.02.2013 04:54 3,3 C 2,3 C 98 % 0 lf 997,4 hPa 0,0 l/m 0 min 0,0 UV-I 0 W/m 5,1 km/h (1 Bft)
02.02.2013 04:56 3,3 C 2,3 C 98 % 0 lf 997,4 hPa 0,0 l/m 0 min 0,0 UV-I 0 W/m 5,1 km/h (1 Bft)
02.02.2013 04:58 3,3 C 2,3 C 98 % 0 lf 997,4 hPa 0,0 l/m 0 min 0,0 UV-I 0 W/m 0,0 km/h (0 Bft)
02.02.2013 05:00 3,3 C 2,3 C 98 % 0 lf 997,4 hPa 0,0 l/m 0 min 0,0 UV-I 0 W/m 0,0 km/h (0 Bft)
02.02.2013 05:02 3,3 C 2,3 C 98 % 0 lf 997,5 hPa 0,0 l/m 0 min 0,0 UV-I 0 W/m 0,0 km/h (0 Bft)
02.02.2013 05:06 3,3 C 2,3 C 98 % 0 lf 997,5 hPa 0,0 l/m 0 min 0,0 UV-I 0 W/m 7,7 km/h (2 Bft)
02.02.2013 05:08 3,3 C 2,3 C 98 % 0 lf 997,5 hPa 0,0 l/m 0 min 0,0 UV-I 0 W/m 0,0 km/h (0 Bft)
02.02.2013 05:10 3,3 C 1,8 C 98 % 0 lf 997,5 hPa 0,0 l/m 0 min 0,0 UV-I 0 W/m 0,0 km/h (0 Bft)
02.02.2013 05:12 3,3 C 1,8 C 99 % 0 lf 997,6 hPa 0,0 l/m 0 min 0,0 UV-I 0 W/m 0,0 km/h (0 Bft)
02.02.2013 05:14 3,3 C 1,8 C 99 % 0 lf 997,6 hPa 0,0 l/m 0 min 0,0 UV-I 0 W/m 2,6 km/h (1 Bft)
02.02.2013 05:16 3,3 C 2,3 C 99 % 0 lf 997,6 hPa 0,0 l/m 0 min 0,0 UV-I 0 W/m 0,0 km/h (0 Bft)
02.02.2013 05:18 3,3 C 2,3 C 98 % 0 lf 997,6 hPa 0,0 l/m 0 min 0,0 UV-I 0 W/m 0,0 km/h (0 Bft)
02.02.2013 05:20 3,3 C 2,3 C 98 % 0 lf 997,6 hPa 0,0 l/m 0 min 0,0 UV-I 0 W/m 0,0 km/h (0 Bft)
02.02.2013 05:22 3,3 C 2,3 C 98 % 0 lf 997,6 hPa 0,0 l/m 0 min 0,0 UV-I 0 W/m 2,6 km/h (1 Bft)
02.02.2013 05:24 3,3 C 2,3 C 98 % 0 lf 997,7 hPa 0,0 l/m 0 min 0,0 UV-I 0 W/m 2,6 km/h (1 Bft)
02.02.2013 05:26 3,3 C 2,3 C 98 % 0 lf 997,8 hPa 0,0 l/m 0 min 0,0 UV-I 0 W/m 0,0 km/h (0 Bft)
02.02.2013 05:28 3,3 C 2,3 C 98 % 0 lf 997,8 hPa 0,0 l/m 0 min 0,0 UV-I 0 W/m 7,7 km/h (2 Bft)
02.02.2013 05:30 3,3 C 2,3 C 98 % 0 lf 997,9 hPa 0,0 l/m 0 min 0,0 UV-I 0 W/m 7,7 km/h (2 Bft)
02.02.2013 05:32 3,3 C 2,3 C 98 % 0 lf 997,8 hPa 0,0 l/m 0 min 0,0 UV-I 0 W/m 12,9 km/h (3 Bft)
02.02.2013 05:34 3,3 C 2,3 C 98 % 0 lf 997,9 hPa 0,0 l/m 0 min 0,0 UV-I 0 W/m 2,6 km/h (1 Bft)
02.02.2013 05:36 3,3 C 2,3 C 98 % 0 lf 997,8 hPa 0,0 l/m 0 min 0,0 UV-I 0 W/m 7,7 km/h (2 Bft)
02.02.2013 05:38 3,3 C 2,3 C 98 % 0 lf 997,9 hPa 0,0 l/m 0 min 0,0 UV-I 0 W/m 0,0 km/h (0 Bft)
02.02.2013 05:40 3,3 C 2,3 C 98 % 0 lf 997,9 hPa 0,0 l/m 0 min 0,0 UV-I 0 W/m 0,0 km/h (0 Bft)
02.02.2013 05:42 3,3 C 2,3 C 98 % 0 lf 997,9 hPa 0,0 l/m 0 min 0,0 UV-I 0 W/m 0,0 km/h (0 Bft)
02.02.2013 05:44 3,3 C 2,3 C 98 % 0 lf 997,9 hPa 0,0 l/m 0 min 0,0 UV-I 0 W/m 0,0 km/h (0 Bft)
02.02.2013 05:46 3,3 C 2,3 C 98 % 0 lf 997,9 hPa 0,0 l/m 0 min 0,0 UV-I 0 W/m 2,6 km/h (1 Bft)
02.02.2013 05:48 3,3 C 2,3 C 98 % 0 lf 998,0 hPa 0,0 l/m 0 min 0,0 UV-I 0 W/m 2,6 km/h (1 Bft)
02.02.2013 05:50 3,3 C 2,3 C 98 % 0 lf 997,9 hPa 0,0 l/m 0 min 0,0 UV-I 0 W/m 0,0 km/h (0 Bft)
02.02.2013 05:52 3,3 C 2,3 C 98 % 0 lf 998,0 hPa 0,0 l/m 0 min 0,0 UV-I 0 W/m 7,7 km/h (2 Bft)
02.02.2013 05:54 3,3 C 2,3 C 98 % 0 lf 998,0 hPa 0,0 l/m 0 min 0,0 UV-I 0 W/m 0,0 km/h (0 Bft)
02.02.2013 05:56 3,3 C 2,3 C 98 % 0 lf 998,0 hPa 0,0 l/m 0 min 0,0 UV-I 0 W/m 0,0 km/h (0 Bft)
02.02.2013 05:58 3,3 C 2,3 C 98 % 0 lf 998,1 hPa 0,0 l/m 0 min 0,0 UV-I 0 W/m 7,7 km/h (2 Bft)
02.02.2013 06:00 3,3 C 2,3 C 98 % 0 lf 998,1 hPa 0,0 l/m 0 min 0,0 UV-I 0 W/m 5,1 km/h (1 Bft)
02.02.2013 06:02 3,3 C 2,3 C 98 % 0 lf 998,1 hPa 0,0 l/m 0 min 0,0 UV-I 0 W/m 12,9 km/h (3 Bft)
02.02.2013 06:06 3,3 C 2,3 C 98 % 0 lf 998,1 hPa 0,0 l/m 0 min 0,0 UV-I 0 W/m 2,6 km/h (1 Bft)
02.02.2013 06:08 3,3 C 2,3 C 98 % 0 lf 998,1 hPa 0,0 l/m 0 min 0,0 UV-I 0 W/m 5,1 km/h (1 Bft)
02.02.2013 06:10 3,3 C 2,3 C 98 % 0 lf 998,2 hPa 0,0 l/m 0 min 0,0 UV-I 0 W/m 0,0 km/h (0 Bft)
02.02.2013 06:12 3,3 C 2,3 C 98 % 0 lf 998,2 hPa 0,0 l/m 0 min 0,0 UV-I 0 W/m 0,0 km/h (0 Bft)
02.02.2013 06:14 3,3 C 2,3 C 98 % 0 lf 998,2 hPa 0,0 l/m 0 min 0,0 UV-I 0 W/m 7,7 km/h (2 Bft)
02.02.2013 06:16 3,3 C 2,3 C 98 % 0 lf 998,2 hPa 0,0 l/m 0 min 0,0 UV-I 0 W/m 10,3 km/h (2 Bft)
02.02.2013 06:18 3,3 C 2,3 C 98 % 0 lf 998,2 hPa 0,0 l/m 0 min 0,0 UV-I 0 W/m 0,0 km/h (0 Bft)
02.02.2013 06:20 3,3 C 2,3 C 98 % 0 lf 998,2 hPa 0,0 l/m 0 min 0,0 UV-I 0 W/m 5,1 km/h (1 Bft)
02.02.2013 06:22 3,3 C 2,3 C 98 % 0 lf 998,2 hPa 0,0 l/m 0 min 0,0 UV-I 0 W/m 7,7 km/h (2 Bft)
02.02.2013 06:24 3,3 C 2,3 C 98 % 0 lf 998,3 hPa 0,0 l/m 0 min 0,0 UV-I 0 W/m 5,1 km/h (1 Bft)
02.02.2013 06:26 3,3 C 2,3 C 98 % 0 lf 998,4 hPa 0,0 l/m 0 min 0,0 UV-I 0 W/m 12,9 km/h (3 Bft)
02.02.2013 06:28 3,3 C 2,3 C 98 % 0 lf 998,4 hPa 0,0 l/m 0 min 0,0 UV-I 0 W/m 5,1 km/h (1 Bft)
02.02.2013 06:30 3,3 C 2,3 C 98 % 0 lf 998,4 hPa 0,0 l/m 0 min 0,0 UV-I 0 W/m 0,0 km/h (0 Bft)
02.02.2013 06:32 3,3 C 2,3 C 98 % 2 lf 998,4 hPa 0,0 l/m 0 min 0,0 UV-I 0 W/m 0,0 km/h (0 Bft)
02.02.2013 06:34 3,3 C 2,3 C 98 % 4 lf 998,4 hPa 0,0 l/m 0 min 0,0 UV-I 0 W/m 0,0 km/h (0 Bft)
02.02.2013 06:36 3,3 C 2,3 C 98 % 12 lf 998,4 hPa 0,0 l/m 0 min 0,0 UV-I 0 W/m 5,1 km/h (1 Bft)
02.02.2013 06:38 3,3 C 2,3 C 98 % 14 lf 998,4 hPa 0,0 l/m 0 min 0,0 UV-I 0 W/m 0,0 km/h (0 Bft)
02.02.2013 06:40 3,3 C 2,3 C 98 % 14 lf 998,4 hPa 0,0 l/m 0 min 0,0 UV-I 0 W/m 0,0 km/h (0 Bft)
02.02.2013 06:42 3,3 C 2,3 C 98 % 15 lf 998,5 hPa 0,0 l/m 0 min 0,0 UV-I 0 W/m 5,1 km/h (1 Bft)
02.02.2013 06:44 3,3 C 2,3 C 98 % 15 lf 998,5 hPa 0,0 l/m 0 min 0,0 UV-I 0 W/m 5,1 km/h (1 Bft)
02.02.2013 06:46 3,3 C 2,3 C 98 % 15 lf 998,5 hPa 0,0 l/m 0 min 0,0 UV-I 0 W/m 7,7 km/h (2 Bft)
02.02.2013 06:48 3,3 C 2,3 C 98 % 15 lf 998,5 hPa 0,0 l/m 0 min 0,0 UV-I 0 W/m 5,1 km/h (1 Bft)
02.02.2013 06:50 3,3 C 2,3 C 98 % 15 lf 998,5 hPa 0,0 l/m 0 min 0,0 UV-I 0 W/m 2,6 km/h (1 Bft)
02.02.2013 06:52 3,3 C 2,3 C 98 % 15 lf 998,5 hPa 0,0 l/m 0 min 0,0 UV-I 0 W/m 5,1 km/h (1 Bft)
02.02.2013 06:54 3,3 C 2,3 C 98 % 15 lf 998,5 hPa 0,0 l/m 0 min 0,0 UV-I 0 W/m 7,7 km/h (2 Bft)
02.02.2013 06:56 3,3 C 2,3 C 98 % 15 lf 998,6 hPa 0,0 l/m 0 min 0,0 UV-I 0 W/m 7,7 km/h (2 Bft)
02.02.2013 06:58 3,3 C 2,3 C 98 % 15 lf 998,6 hPa 0,2 l/m 0 min 0,0 UV-I 0 W/m 2,6 km/h (1 Bft)
02.02.2013 07:00 3,3 C 2,3 C 98 % 15 lf 998,6 hPa 0,0 l/m 0 min 0,0 UV-I 0 W/m 10,3 km/h (2 Bft)
02.02.2013 07:02 3,3 C 2,3 C 98 % 15 lf 998,6 hPa 0,0 l/m 0 min 0,0 UV-I 0 W/m 5,1 km/h (1 Bft)
02.02.2013 07:06 3,3 C 1,8 C 98 % 15 lf 998,7 hPa 0,0 l/m 0 min 0,0 UV-I 0 W/m 7,7 km/h (2 Bft)
02.02.2013 07:08 3,2 C 1,8 C 98 % 15 lf 998,7 hPa 0,0 l/m 0 min 0,0 UV-I 0 W/m 0,0 km/h (0 Bft)
02.02.2013 07:10 3,2 C 1,8 C 98 % 15 lf 998,8 hPa 0,0 l/m 0 min 0,0 UV-I 0 W/m 10,3 km/h (2 Bft)
02.02.2013 07:12 3,2 C 1,8 C 98 % 15 lf 998,8 hPa 0,0 l/m 0 min 0,0 UV-I 0 W/m 0,0 km/h (0 Bft)
02.02.2013 07:14 3,2 C 1,8 C 98 % 15 lf 998,8 hPa 0,0 l/m 0 min 0,0 UV-I 0 W/m 2,6 km/h (1 Bft)
02.02.2013 07:16 3,2 C 1,8 C 98 % 15 lf 998,8 hPa 0,0 l/m 0 min 0,0 UV-I 0 W/m 7,7 km/h (2 Bft)
02.02.2013 07:18 3,2 C 1,8 C 98 % 15 lf 998,9 hPa 0,0 l/m 0 min 0,0 UV-I 0 W/m 7,7 km/h (2 Bft)
02.02.2013 07:20 3,2 C 1,8 C 98 % 15 lf 998,8 hPa 0,0 l/m 0 min 0,0 UV-I 0 W/m 7,7 km/h (2 Bft)
02.02.2013 07:22 3,1 C 1,8 C 98 % 15 lf 998,9 hPa 0,0 l/m 0 min 0,0 UV-I 0 W/m 0,0 km/h (0 Bft)
02.02.2013 07:24 3,1 C 1,8 C 98 % 15 lf 998,9 hPa 0,0 l/m 0 min 0,0 UV-I 0 W/m 12,9 km/h (3 Bft)
02.02.2013 07:26 3,1 C 1,8 C 98 % 15 lf 998,9 hPa 0,0 l/m 0 min 0,0 UV-I 0 W/m 0,0 km/h (0 Bft)
02.02.2013 07:28 3,1 C 1,8 C 98 % 15 lf 999,0 hPa 0,0 l/m 0 min 0,0 UV-I 0 W/m 0,0 km/h (0 Bft)
02.02.2013 07:30 3,1 C 1,8 C 98 % 15 lf 999,0 hPa 0,0 l/m 0 min 0,0 UV-I 0 W/m 0,0 km/h (0 Bft)
02.02.2013 07:32 3,1 C 1,8 C 98 % 15 lf 999,1 hPa 0,0 l/m 0 min 0,0 UV-I 0 W/m 0,0 km/h (0 Bft)
02.02.2013 07:34 3,1 C 1,8 C 98 % 15 lf 999,1 hPa 0,0 l/m 0 min 0,0 UV-I 0 W/m 7,7 km/h (2 Bft)
02.02.2013 07:36 3,1 C 1,8 C 98 % 15 lf 999,2 hPa 0,0 l/m 0 min 0,0 UV-I 0 W/m 10,3 km/h (2 Bft)
02.02.2013 07:38 3,1 C 1,8 C 98 % 15 lf 999,2 hPa 0,0 l/m 0 min 0,0 UV-I 0 W/m 0,0 km/h (0 Bft)
02.02.2013 07:40 3,1 C 1,8 C 98 % 15 lf 999,2 hPa 0,0 l/m 0 min 0,0 UV-I 0 W/m 0,0 km/h (0 Bft)
02.02.2013 07:42 3,1 C 1,8 C 98 % 15 lf 999,2 hPa 0,0 l/m 0 min 0,0 UV-I 0 W/m 10,3 km/h (2 Bft)
02.02.2013 07:44 3,1 C 1,8 C 98 % 15 lf 999,3 hPa 0,0 l/m 0 min 0,0 UV-I 0 W/m 10,3 km/h (2 Bft)
02.02.2013 07:46 3,1 C 1,8 C 98 % 15 lf 999,3 hPa 0,0 l/m 0 min 0,0 UV-I 0 W/m 0,0 km/h (0 Bft)
02.02.2013 07:48 3,1 C 1,8 C 98 % 15 lf 999,4 hPa 0,0 l/m 0 min 0,0 UV-I 0 W/m 0,0 km/h (0 Bft)
02.02.2013 07:50 3,1 C 1,8 C 98 % 15 lf 999,4 hPa 0,0 l/m 0 min 0,0 UV-I 0 W/m 0,0 km/h (0 Bft)
02.02.2013 07:52 3,1 C 1,8 C 98 % 15 lf 999,4 hPa 0,0 l/m 0 min 0,0 UV-I 0 W/m 7,7 km/h (2 Bft)
02.02.2013 07:54 3,1 C 1,8 C 98 % 15 lf 999,6 hPa 0,0 l/m 0 min 0,0 UV-I 0 W/m 0,0 km/h (0 Bft)
02.02.2013 07:56 3,1 C 1,8 C 98 % 15 lf 999,5 hPa 0,0 l/m 0 min 0,0 UV-I 0 W/m 0,0 km/h (0 Bft)
02.02.2013 07:58 3,1 C 1,8 C 98 % 15 lf 999,5 hPa 0,0 l/m 0 min 0,0 UV-I 0 W/m 5,1 km/h (1 Bft)
02.02.2013 08:00 3,1 C 1,8 C 98 % 15 lf 999,7 hPa 0,0 l/m 0 min 0,0 UV-I 0 W/m 10,3 km/h (2 Bft)
02.02.2013 08:02 3,1 C 1,8 C 98 % 15 lf 999,7 hPa 0,0 l/m 0 min 0,0 UV-I 0 W/m 5,1 km/h (1 Bft)
02.02.2013 08:06 3,1 C 1,8 C 98 % 15 lf 999,8 hPa 0,0 l/m 0 min 0,0 UV-I 0 W/m 7,7 km/h (2 Bft)
02.02.2013 08:08 3,1 C 1,8 C 98 % 15 lf 999,9 hPa 0,2 l/m 0 min 0,0 UV-I 0 W/m 5,1 km/h (1 Bft)
02.02.2013 08:10 3,1 C 1,8 C 98 % 15 lf 999,9 hPa 0,0 l/m 0 min 0,0 UV-I 0 W/m 2,6 km/h (1 Bft)
02.02.2013 08:12 3,1 C 1,8 C 98 % 15 lf 999,9 hPa 0,0 l/m 0 min 0,0 UV-I 0 W/m 2,6 km/h (1 Bft)
02.02.2013 08:14 3,1 C 1,8 C 98 % 15 lf 999,9 hPa 0,2 l/m 0 min 0,0 UV-I 0 W/m 15,4 km/h (3 Bft)
02.02.2013 08:16 3,1 C 1,8 C 98 % 15 lf 999,9 hPa 0,0 l/m 0 min 0,0 UV-I 0 W/m 5,1 km/h (1 Bft)
02.02.2013 08:18 3,1 C 1,8 C 98 % 15 lf 999,9 hPa 0,0 l/m 0 min 0,0 UV-I 0 W/m 0,0 km/h (0 Bft)
02.02.2013 08:20 3,1 C 1,8 C 98 % 14 lf 1000,1 hPa 0,0 l/m 0 min 0,0 UV-I 0 W/m 0,0 km/h (0 Bft)
02.02.2013 08:22 3,1 C 1,8 C 98 % 14 lf 1000,1 hPa 0,2 l/m 0 min 0,0 UV-I 0 W/m 7,7 km/h (2 Bft)
02.02.2013 08:24 3,1 C 1,8 C 98 % 14 lf 1000,2 hPa 0,0 l/m 0 min 0,0 UV-I 0 W/m 2,6 km/h (1 Bft)
02.02.2013 08:26 3,1 C 1,8 C 98 % 14 lf 1000,1 hPa 0,0 l/m 0 min 0,0 UV-I 0 W/m 10,3 km/h (2 Bft)
02.02.2013 08:28 3,1 C 1,8 C 98 % 14 lf 1000,1 hPa 0,0 l/m 0 min 0,0 UV-I 0 W/m 2,6 km/h (1 Bft)
02.02.2013 08:30 3,1 C 1,8 C 98 % 14 lf 1000,2 hPa 0,0 l/m 0 min 0,0 UV-I 0 W/m 5,1 km/h (1 Bft)
02.02.2013 08:32 3,1 C 1,8 C 98 % 14 lf 1000,2 hPa 0,0 l/m 0 min 0,0 UV-I 0 W/m 7,7 km/h (2 Bft)
02.02.2013 08:34 3,1 C 1,8 C 98 % 14 lf 1000,3 hPa 0,0 l/m 0 min 0,0 UV-I 0 W/m 7,7 km/h (2 Bft)
02.02.2013 08:36 3,1 C 1,8 C 98 % 14 lf 1000,3 hPa 0,0 l/m 0 min 0,0 UV-I 0 W/m 7,7 km/h (2 Bft)
02.02.2013 08:38 3,0 C 1,8 C 98 % 14 lf 1000,3 hPa 0,0 l/m 0 min 0,0 UV-I 0 W/m 0,0 km/h (0 Bft)
02.02.2013 08:40 3,1 C 1,8 C 98 % 15 lf 1000,3 hPa 0,2 l/m 0 min 0,0 UV-I 0 W/m 0,0 km/h (0 Bft)
02.02.2013 08:42 3,0 C 1,8 C 98 % 15 lf 1000,4 hPa 0,0 l/m 0 min 0,0 UV-I 0 W/m 0,0 km/h (0 Bft)
02.02.2013 08:44 3,0 C 1,8 C 98 % 15 lf 1000,4 hPa 0,0 l/m 0 min 0,0 UV-I 0 W/m 0,0 km/h (0 Bft)
02.02.2013 08:46 3,0 C 1,8 C 98 % 15 lf 1000,4 hPa 0,0 l/m 0 min 0,0 UV-I 0 W/m 0,0 km/h (0 Bft)
02.02.2013 08:48 3,0 C 1,8 C 98 % 15 lf 1000,5 hPa 0,0 l/m 0 min 0,0 UV-I 0 W/m 0,0 km/h (0 Bft)
02.02.2013 08:50 3,0 C 1,8 C 98 % 15 lf 1000,5 hPa 0,0 l/m 0 min 0,0 UV-I 0 W/m 0,0 km/h (0 Bft)
02.02.2013 08:52 3,0 C 1,8 C 98 % 15 lf 1000,6 hPa 0,0 l/m 0 min 0,0 UV-I 0 W/m 0,0 km/h (0 Bft)
02.02.2013 08:54 3,0 C 1,8 C 98 % 15 lf 1000,6 hPa 0,0 l/m 0 min 0,0 UV-I 0 W/m 0,0 km/h (0 Bft)
02.02.2013 08:56 3,0 C 1,8 C 98 % 15 lf 1000,6 hPa 0,0 l/m 0 min 0,0 UV-I 5 W/m 0,0 km/h (0 Bft)
02.02.2013 08:58 3,0 C 1,8 C 98 % 15 lf 1000,6 hPa 0,0 l/m 0 min 0,0 UV-I 7 W/m 0,0 km/h (0 Bft)
02.02.2013 09:00 3,0 C 1,8 C 98 % 15 lf 1000,6 hPa 0,0 l/m 0 min 0,0 UV-I 7 W/m 0,0 km/h (0 Bft)
02.02.2013 09:02 3,1 C 2,3 C 98 % 15 lf 1000,7 hPa 0,0 l/m 0 min 0,0 UV-I 7 W/m 0,0 km/h (0 Bft)
02.02.2013 09:06 3,1 C 2,3 C 99 % 15 lf 1000,8 hPa 0,0 l/m 0 min 0,0 UV-I 14 W/m 0,0 km/h (0 Bft)
02.02.2013 09:08 3,1 C 2,3 C 99 % 15 lf 1000,8 hPa 0,0 l/m 0 min 0,0 UV-I 19 W/m 0,0 km/h (0 Bft)
02.02.2013 09:10 3,1 C 2,3 C 99 % 15 lf 1000,8 hPa 0,0 l/m 0 min 0,0 UV-I 26 W/m 0,0 km/h (0 Bft)
02.02.2013 09:12 3,1 C 2,3 C 99 % 15 lf 1000,9 hPa 0,0 l/m 0 min 0,0 UV-I 35 W/m 0,0 km/h (0 Bft)
02.02.2013 09:14 3,1 C 2,3 C 99 % 15 lf 1000,9 hPa 0,0 l/m 0 min 0,0 UV-I 28 W/m 0,0 km/h (0 Bft)
02.02.2013 09:16 3,1 C 2,3 C 99 % 15 lf 1001,0 hPa 0,0 l/m 0 min 0,0 UV-I 21 W/m 0,0 km/h (0 Bft)
02.02.2013 09:18 3,2 C 2,3 C 99 % 15 lf 1001,0 hPa 0,0 l/m 0 min 0,0 UV-I 23 W/m 0,0 km/h (0 Bft)
02.02.2013 09:20 3,2 C 2,3 C 99 % 15 lf 1001,0 hPa 0,0 l/m 0 min 0,0 UV-I 39 W/m 0,0 km/h (0 Bft)
02.02.2013 09:22 3,2 C 2,3 C 99 % 15 lf 1001,0 hPa 0,0 l/m 0 min 0,0 UV-I 30 W/m 0,0 km/h (0 Bft)
02.02.2013 09:24 3,2 C 2,3 C 99 % 15 lf 1001,1 hPa 0,0 l/m 0 min 0,0 UV-I 30 W/m 5,1 km/h (1 Bft)
02.02.2013 09:26 3,2 C 2,3 C 99 % 15 lf 1001,2 hPa 0,0 l/m 0 min 0,0 UV-I 25 W/m 0,0 km/h (0 Bft)
02.02.2013 09:28 3,3 C 2,3 C 99 % 15 lf 1001,2 hPa 0,0 l/m 0 min 0,0 UV-I 18 W/m 2,6 km/h (1 Bft)
02.02.2013 09:30 3,3 C 2,3 C 99 % 15 lf 1001,2 hPa 0,2 l/m 0 min 0,0 UV-I 12 W/m 0,0 km/h (0 Bft)
02.02.2013 09:32 3,3 C 2,3 C 99 % 15 lf 1001,3 hPa 0,0 l/m 0 min 0,0 UV-I 14 W/m 0,0 km/h (0 Bft)
02.02.2013 09:34 3,3 C 2,9 C 99 % 15 lf 1001,3 hPa 0,0 l/m 0 min 0,0 UV-I 18 W/m 0,0 km/h (0 Bft)
02.02.2013 09:36 3,3 C 2,9 C 99 % 15 lf 1001,3 hPa 0,0 l/m 0 min 0,0 UV-I 19 W/m 5,1 km/h (1 Bft)
02.02.2013 09:38 3,4 C 2,3 C 99 % 15 lf 1001,4 hPa 0,0 l/m 0 min 0,0 UV-I 19 W/m 5,1 km/h (1 Bft)
02.02.2013 09:40 3,4 C 2,3 C 99 % 15 lf 1001,4 hPa 0,0 l/m 0 min 0,0 UV-I 18 W/m 5,1 km/h (1 Bft)
02.02.2013 09:42 3,4 C 2,9 C 99 % 14 lf 1001,5 hPa 0,0 l/m 0 min 0,0 UV-I 21 W/m 2,6 km/h (1 Bft)
02.02.2013 09:44 3,5 C 2,9 C 99 % 14 lf 1001,6 hPa 0,0 l/m 0 min 0,0 UV-I 21 W/m 12,9 km/h (3 Bft)
02.02.2013 09:46 3,5 C 2,9 C 99 % 14 lf 1001,7 hPa 0,2 l/m 0 min 0,0 UV-I 19 W/m 10,3 km/h (2 Bft)
02.02.2013 09:48 3,5 C 2,9 C 99 % 14 lf 1001,7 hPa 0,0 l/m 0 min 0,0 UV-I 19 W/m 5,1 km/h (1 Bft)
02.02.2013 09:50 3,6 C 2,9 C 99 % 14 lf 1001,7 hPa 0,0 l/m 0 min 0,0 UV-I 25 W/m 18,0 km/h (3 Bft)
02.02.2013 09:52 3,6 C 2,9 C 99 % 14 lf 1001,7 hPa 0,0 l/m 0 min 0,0 UV-I 28 W/m 7,7 km/h (2 Bft)
02.02.2013 09:54 3,6 C 2,3 C 99 % 14 lf 1001,8 hPa 0,0 l/m 0 min 0,0 UV-I 25 W/m 30,9 km/h (5 Bft)
02.02.2013 09:56 3,6 C 2,3 C 99 % 15 lf 1001,8 hPa 0,0 l/m 0 min 0,0 UV-I 19 W/m 18,0 km/h (3 Bft)
02.02.2013 09:58 3,6 C 2,3 C 99 % 15 lf 1001,8 hPa 0,0 l/m 0 min 0,0 UV-I 12 W/m 20,6 km/h (4 Bft)
02.02.2013 10:00 3,6 C 2,3 C 99 % 15 lf 1002,0 hPa 0,0 l/m 0 min 0,0 UV-I 16 W/m 18,0 km/h (3 Bft)
02.02.2013 10:02 3,5 C 2,3 C 99 % 15 lf 1002,2 hPa 0,0 l/m 0 min 0,0 UV-I 12 W/m 38,6 km/h (5 Bft)
02.02.2013 10:06 3,3 C 1,8 C 99 % 15 lf 1002,3 hPa 0,2 l/m 0 min 0,0 UV-I 21 W/m 38,6 km/h (5 Bft)
02.02.2013 10:08 3,2 C 1,8 C 99 % 15 lf 1002,4 hPa 0,0 l/m 0 min 0,0 UV-I 40 W/m 30,9 km/h (5 Bft)
02.02.2013 10:10 3,0 C 1,2 C 98 % 15 lf 1002,4 hPa 0,0 l/m 0 min 0,0 UV-I 51 W/m 41,2 km/h (6 Bft)
02.02.2013 10:12 2,8 C 1,2 C 98 % 15 lf 1002,5 hPa 0,0 l/m 0 min 0,0 UV-I 56 W/m 38,6 km/h (5 Bft)
02.02.2013 10:14 2,7 C 1,2 C 98 % 14 lf 1002,7 hPa 0,0 l/m 0 min 0,0 UV-I 49 W/m 41,2 km/h (6 Bft)
02.02.2013 10:16 2,6 C 1,2 C 98 % 14 lf 1002,7 hPa 0,0 l/m 0 min 0,0 UV-I 39 W/m 38,6 km/h (5 Bft)
02.02.2013 10:18 2,5 C 1,2 C 98 % 14 lf 1003,0 hPa 0,0 l/m 0 min 0,0 UV-I 35 W/m 41,2 km/h (6 Bft)
02.02.2013 10:20 2,4 C 1,2 C 98 % 14 lf 1003,0 hPa 0,0 l/m 0 min 0,0 UV-I 35 W/m 38,6 km/h (5 Bft)
02.02.2013 10:22 2,4 C 1,2 C 98 % 14 lf 1003,0 hPa 0,0 l/m 0 min 0,0 UV-I 30 W/m 56,6 km/h (7 Bft)
02.02.2013 10:24 2,3 C 1,2 C 98 % 14 lf 1003,0 hPa 0,0 l/m 0 min 0,0 UV-I 30 W/m 38,6 km/h (5 Bft)
02.02.2013 10:26 2,3 C 1,2 C 98 % 14 lf 1003,1 hPa 0,0 l/m 0 min 0,0 UV-I 30 W/m 20,6 km/h (4 Bft)
02.02.2013 10:28 2,3 C 1,2 C 97 % 14 lf 1003,3 hPa 0,0 l/m 0 min 0,0 UV-I 25 W/m 33,5 km/h (5 Bft)
02.02.2013 10:30 2,3 C 1,2 C 97 % 13 lf 1003,4 hPa 0,0 l/m 0 min 0,0 UV-I 37 W/m 38,6 km/h (5 Bft)
02.02.2013 10:32 2,3 C 1,2 C 97 % 13 lf 1003,5 hPa 0,0 l/m 0 min 0,0 UV-I 51 W/m 28,3 km/h (4 Bft)
02.02.2013 10:34 2,3 C 1,2 C 97 % 13 lf 1003,5 hPa 0,0 l/m 0 min 0,0 UV-I 51 W/m 30,9 km/h (5 Bft)
02.02.2013 10:36 2,3 C 1,2 C 97 % 13 lf 1003,6 hPa 0,0 l/m 0 min 0,0 UV-I 42 W/m 36,0 km/h (5 Bft)
02.02.2013 10:38 2,2 C 0,7 C 97 % 12 lf 1003,9 hPa 0,0 l/m 0 min 0,0 UV-I 39 W/m 38,6 km/h (5 Bft)
02.02.2013 10:40 2,2 C 0,7 C 97 % 13 lf 1004,0 hPa 0,0 l/m 0 min 0,0 UV-I 37 W/m 43,8 km/h (6 Bft)
02.02.2013 10:42 2,2 C 0,7 C 96 % 13 lf 1004,0 hPa 0,0 l/m 0 min 0,0 UV-I 37 W/m 33,5 km/h (5 Bft)
02.02.2013 10:44 2,1 C 0,7 C 96 % 13 lf 1004,1 hPa 0,0 l/m 0 min 0,0 UV-I 40 W/m 51,5 km/h (7 Bft)
02.02.2013 10:46 2,1 C 0,1 C 96 % 13 lf 1004,1 hPa 0,2 l/m 0 min 0,0 UV-I 35 W/m 38,6 km/h (5 Bft)
02.02.2013 10:48 2,0 C 0,1 C 96 % 13 lf 1004,2 hPa 0,0 l/m 0 min 0,0 UV-I 35 W/m 33,5 km/h (5 Bft)
02.02.2013 10:50 1,9 C 0,7 C 96 % 13 lf 1004,2 hPa 0,0 l/m 0 min 0,0 UV-I 37 W/m 38,6 km/h (5 Bft)
02.02.2013 10:52 1,9 C 0,1 C 96 % 13 lf 1004,3 hPa 0,0 l/m 0 min 0,0 UV-I 35 W/m 38,6 km/h (5 Bft)
02.02.2013 10:54 1,9 C 0,1 C 96 % 13 lf 1004,4 hPa 0,0 l/m 0 min 0,0 UV-I 33 W/m 48,9 km/h (6 Bft)
02.02.2013 10:56 1,8 C 0,1 C 96 % 12 lf 1004,5 hPa 0,0 l/m 0 min 0,0 UV-I 30 W/m 41,2 km/h (6 Bft)
02.02.2013 10:58 1,8 C 0,1 C 96 % 12 lf 1004,6 hPa 0,0 l/m 0 min 0,0 UV-I 28 W/m 30,9 km/h (5 Bft)
02.02.2013 11:00 1,8 C 0,1 C 95 % 11 lf 1004,6 hPa 0,0 l/m 0 min 0,0 UV-I 30 W/m 61,8 km/h (7 Bft)
02.02.2013 11:02 1,7 C 0,1 C 95 % 11 lf 1004,7 hPa 0,0 l/m 0 min 0,0 UV-I 28 W/m 20,6 km/h (4 Bft)
02.02.2013 11:06 1,7 C 0,1 C 95 % 9 lf 1004,8 hPa 0,0 l/m 0 min 0,0 UV-I 32 W/m 28,3 km/h (4 Bft)
02.02.2013 11:08 1,7 C 0,1 C 95 % 9 lf 1004,8 hPa 0,0 l/m 0 min 0,0 UV-I 35 W/m 25,7 km/h (4 Bft)
02.02.2013 11:10 1,7 C 0,1 C 95 % 8 lf 1004,9 hPa 0,0 l/m 0 min 0,0 UV-I 37 W/m 25,7 km/h (4 Bft)
02.02.2013 11:12 1,7 C 0,1 C 95 % 7 lf 1005,0 hPa 0,0 l/m 0 min 0,0 UV-I 39 W/m 20,6 km/h (4 Bft)
02.02.2013 11:14 1,6 C 0,1 C 95 % 5 lf 1005,1 hPa 0,0 l/m 0 min 0,0 UV-I 40 W/m 38,6 km/h (5 Bft)
02.02.2013 11:16 1,6 C 0,1 C 95 % 4 lf 1005,0 hPa 0,0 l/m 0 min 0,0 UV-I 40 W/m 18,0 km/h (3 Bft)
02.02.2013 11:18 1,6 C 0,1 C 95 % 4 lf 1005,1 hPa 0,0 l/m 0 min 0,0 UV-I 37 W/m 15,4 km/h (3 Bft)
02.02.2013 11:20 1,6 C 0,1 C 95 % 4 lf 1005,2 hPa 0,0 l/m 0 min 0,0 UV-I 40 W/m 15,4 km/h (3 Bft)
02.02.2013 11:22 1,6 C 0,1 C 95 % 3 lf 1005,2 hPa 0,0 l/m 0 min 0,0 UV-I 44 W/m 23,2 km/h (4 Bft)
02.02.2013 11:24 1,6 C 0,1 C 95 % 3 lf 1005,2 hPa 0,0 l/m 0 min 0,0 UV-I 51 W/m 15,4 km/h (3 Bft)
02.02.2013 11:26 1,6 C 0,1 C 95 % 3 lf 1005,2 hPa 0,0 l/m 0 min 0,0 UV-I 62 W/m 25,7 km/h (4 Bft)
02.02.2013 11:28 1,6 C 0,1 C 95 % 3 lf 1005,2 hPa 0,0 l/m 0 min 0,0 UV-I 63 W/m 23,2 km/h (4 Bft)
02.02.2013 11:30 1,6 C 0,7 C 95 % 3 lf 1005,2 hPa 0,0 l/m 0 min 0,0 UV-I 70 W/m 18,0 km/h (3 Bft)
02.02.2013 11:32 1,6 C 0,7 C 96 % 3 lf 1005,3 hPa 0,0 l/m 0 min 0,0 UV-I 74 W/m 28,3 km/h (4 Bft)
02.02.2013 11:34 1,6 C 0,7 C 96 % 3 lf 1005,3 hPa 0,0 l/m 0 min 0,0 UV-I 84 W/m 23,2 km/h (4 Bft)
02.02.2013 11:36 1,7 C 0,7 C 96 % 3 lf 1005,4 hPa 0,0 l/m 0 min 0,0 UV-I 90 W/m 18,0 km/h (3 Bft)
02.02.2013 11:38 1,7 C 0,7 C 96 % 3 lf 1005,5 hPa 0,0 l/m 0 min 0,0 UV-I 91 W/m 23,2 km/h (4 Bft)
02.02.2013 11:40 1,7 C 0,7 C 96 % 3 lf 1005,5 hPa 0,0 l/m 0 min 0,0 UV-I 95 W/m 18,0 km/h (3 Bft)
02.02.2013 11:42 1,7 C 0,7 C 96 % 2 lf 1005,5 hPa 0,0 l/m 0 min 0,0 UV-I 98 W/m 15,4 km/h (3 Bft)
02.02.2013 11:44 1,7 C 0,7 C 96 % 2 lf 1005,6 hPa 0,0 l/m 0 min 0,0 UV-I 91 W/m 12,9 km/h (3 Bft)
02.02.2013 11:46 1,8 C 0,7 C 96 % 2 lf 1005,6 hPa 0,0 l/m 0 min 0,0 UV-I 90 W/m 18,0 km/h (3 Bft)
02.02.2013 11:48 1,8 C 0,7 C 96 % 2 lf 1005,6 hPa 0,0 l/m 0 min 0,0 UV-I 84 W/m 15,4 km/h (3 Bft)
02.02.2013 11:50 1,8 C 1,2 C 95 % 2 lf 1005,7 hPa 0,0 l/m 0 min 0,0 UV-I 100 W/m 18,0 km/h (3 Bft)
02.02.2013 11:52 1,9 C 1,2 C 95 % 2 lf 1005,7 hPa 0,0 l/m 0 min 0,0 UV-I 67 W/m 10,3 km/h (2 Bft)
02.02.2013 11:54 1,9 C 1,2 C 95 % 2 lf 1005,8 hPa 0,0 l/m 0 min 0,0 UV-I 60 W/m 20,6 km/h (4 Bft)
02.02.2013 11:56 1,9 C 1,2 C 96 % 2 lf 1005,8 hPa 0,0 l/m 0 min 0,0 UV-I 79 W/m 10,3 km/h (2 Bft)
02.02.2013 11:58 2,0 C 1,2 C 95 % 2 lf 1005,8 hPa 0,0 l/m 0 min 0,0 UV-I 100 W/m 12,9 km/h (3 Bft)
02.02.2013 12:00 2,1 C 1,2 C 95 % 2 lf 1005,8 hPa 0,0 l/m 0 min 0,0 UV-I 70 W/m 15,4 km/h (3 Bft)
02.02.2013 12:02 2,1 C 1,2 C 95 % 2 lf 1005,9 hPa 0,0 l/m 0 min 0,0 UV-I 65 W/m 10,3 km/h (2 Bft)
02.02.2013 12:06 2,2 C 1,2 C 96 % 2 lf 1006,0 hPa 0,0 l/m 0 min 0,0 UV-I 53 W/m 23,2 km/h (4 Bft)
02.02.2013 12:08 2,3 C 1,2 C 95 % 2 lf 1006,0 hPa 0,0 l/m 0 min 0,0 UV-I 60 W/m 12,9 km/h (3 Bft)
02.02.2013 12:10 2,3 C 1,2 C 95 % 2 lf 1006,0 hPa 0,0 l/m 0 min 0,0 UV-I 77 W/m 12,9 km/h (3 Bft)
02.02.2013 12:12 2,3 C 1,2 C 96 % 2 lf 1006,1 hPa 0,0 l/m 0 min 0,0 UV-I 74 W/m 18,0 km/h (3 Bft)
02.02.2013 12:14 2,3 C 1,2 C 96 % 2 lf 1006,1 hPa 0,0 l/m 0 min 0,0 UV-I 91 W/m 20,6 km/h (4 Bft)
02.02.2013 12:16 2,4 C 1,8 C 96 % 2 lf 1006,1 hPa 0,0 l/m 0 min 0,0 UV-I 84 W/m 15,4 km/h (3 Bft)
02.02.2013 12:18 2,4 C 1,8 C 96 % 2 lf 1006,2 hPa 0,0 l/m 0 min 0,0 UV-I 79 W/m 10,3 km/h (2 Bft)
02.02.2013 12:20 2,5 C 1,8 C 96 % 2 lf 1006,2 hPa 0,0 l/m 0 min 0,0 UV-I 91 W/m 10,3 km/h (2 Bft)
02.02.2013 12:22 2,5 C 1,8 C 96 % 1 lf 1006,3 hPa 0,0 l/m 0 min 0,0 UV-I 79 W/m 20,6 km/h (4 Bft)
02.02.2013 12:24 2,5 C 1,8 C 96 % 1 lf 1006,3 hPa 0,0 l/m 0 min 0,0 UV-I 74 W/m 10,3 km/h (2 Bft)
02.02.2013 12:26 2,6 C 1,8 C 96 % 1 lf 1006,3 hPa 0,0 l/m 0 min 0,0 UV-I 90 W/m 15,4 km/h (3 Bft)
02.02.2013 12:28 2,6 C 1,8 C 96 % 1 lf 1006,3 hPa 0,0 l/m 0 min 0,0 UV-I 98 W/m 23,2 km/h (4 Bft)
02.02.2013 12:30 2,6 C 1,8 C 96 % 0 lf 1006,4 hPa 0,0 l/m 0 min 0,0 UV-I 102 W/m 15,4 km/h (3 Bft)
02.02.2013 12:32 2,6 C 1,8 C 96 % 0 lf 1006,6 hPa 0,0 l/m 0 min 0,0 UV-I 105 W/m 23,2 km/h (4 Bft)
02.02.2013 12:34 2,7 C 1,8 C 96 % 0 lf 1006,5 hPa 0,0 l/m 0 min 0,0 UV-I 139 W/m 15,4 km/h (3 Bft)
02.02.2013 12:36 2,7 C 1,8 C 96 % 0 lf 1006,7 hPa 0,0 l/m 0 min 0,0 UV-I 151 W/m 18,0 km/h (3 Bft)
02.02.2013 12:38 2,7 C 1,8 C 96 % 0 lf 1006,7 hPa 0,0 l/m 0 min 0,0 UV-I 142 W/m 15,4 km/h (3 Bft)
02.02.2013 12:40 2,8 C 2,3 C 96 % 0 lf 1006,7 hPa 0,0 l/m 0 min 0,0 UV-I 141 W/m 18,0 km/h (3 Bft)
02.02.2013 12:42 2,8 C 1,8 C 96 % 0 lf 1006,8 hPa 0,0 l/m 0 min 0,0 UV-I 135 W/m 20,6 km/h (4 Bft)
02.02.2013 12:44 2,8 C 2,3 C 96 % 0 lf 1006,8 hPa 0,0 l/m 0 min 0,0 UV-I 118 W/m 10,3 km/h (2 Bft)
02.02.2013 12:46 2,9 C 2,3 C 96 % 0 lf 1006,9 hPa 0,0 l/m 0 min 0,0 UV-I 79 W/m 18,0 km/h (3 Bft)
02.02.2013 12:48 2,9 C 1,8 C 96 % 0 lf 1006,8 hPa 0,0 l/m 0 min 0,0 UV-I 91 W/m 15,4 km/h (3 Bft)
02.02.2013 12:50 2,9 C 2,3 C 96 % 0 lf 1006,8 hPa 0,0 l/m 0 min 0,0 UV-I 69 W/m 10,3 km/h (2 Bft)
02.02.2013 12:52 3,0 C 2,3 C 96 % 0 lf 1006,9 hPa 0,0 l/m 0 min 0,0 UV-I 77 W/m 10,3 km/h (2 Bft)
02.02.2013 12:54 3,0 C 1,8 C 96 % 0 lf 1006,9 hPa 0,0 l/m 0 min 0,0 UV-I 95 W/m 20,6 km/h (4 Bft)
02.02.2013 12:56 3,1 C 1,8 C 96 % 0 lf 1006,9 hPa 0,0 l/m 0 min 0,0 UV-I 86 W/m 18,0 km/h (3 Bft)
02.02.2013 12:58 3,1 C 1,8 C 96 % 0 lf 1007,0 hPa 0,0 l/m 0 min 0,0 UV-I 83 W/m 18,0 km/h (3 Bft)
02.02.2013 13:00 3,1 C 1,8 C 96 % 0 lf 1007,0 hPa 0,0 l/m 0 min 0,0 UV-I 102 W/m 23,2 km/h (4 Bft)
02.02.2013 13:02 3,1 C 2,3 C 96 % 0 lf 1007,0 hPa 0,0 l/m 0 min 0,0 UV-I 118 W/m 18,0 km/h (3 Bft)
02.02.2013 13:06 3,1 C 2,3 C 96 % 0 lf 1007,0 hPa 0,0 l/m 0 min 0,0 UV-I 93 W/m 12,9 km/h (3 Bft)
02.02.2013 13:08 3,2 C 2,3 C 95 % 0 lf 1007,0 hPa 0,0 l/m 0 min 0,0 UV-I 90 W/m 18,0 km/h (3 Bft)
02.02.2013 13:10 3,2 C 2,3 C 95 % 0 lf 1007,1 hPa 0,0 l/m 0 min 0,0 UV-I 137 W/m 10,3 km/h (2 Bft)
02.02.2013 13:12 3,2 C 2,3 C 95 % 0 lf 1007,1 hPa 0,0 l/m 0 min 0,0 UV-I 149 W/m 20,6 km/h (4 Bft)
02.02.2013 13:14 3,2 C 2,3 C 95 % 0 lf 1007,1 hPa 0,0 l/m 0 min 0,0 UV-I 146 W/m 20,6 km/h (4 Bft)
02.02.2013 13:16 3,2 C 2,3 C 95 % 0 lf 1007,1 hPa 0,0 l/m 2 min 0,0 UV-I 262 W/m 12,9 km/h (3 Bft)
02.02.2013 13:18 3,3 C 2,3 C 95 % 0 lf 1007,2 hPa 0,0 l/m 0 min 0,0 UV-I 151 W/m 25,7 km/h (4 Bft)
02.02.2013 13:20 3,4 C 2,3 C 95 % 0 lf 1007,4 hPa 0,0 l/m 0 min 0,0 UV-I 125 W/m 20,6 km/h (4 Bft)
02.02.2013 13:22 3,4 C 2,3 C 95 % 0 lf 1007,5 hPa 0,0 l/m 2 min 0,0 UV-I 385 W/m 18,0 km/h (3 Bft)
02.02.2013 13:24 3,5 C 2,3 C 95 % 0 lf 1007,5 hPa 0,0 l/m 2 min 0,0 UV-I 392 W/m 20,6 km/h (4 Bft)
02.02.2013 13:26 3,6 C 2,9 C 95 % 0 lf 1007,5 hPa 0,0 l/m 2 min 0,0 UV-I 320 W/m 28,3 km/h (4 Bft)
02.02.2013 13:28 3,6 C 2,3 C 95 % 0 lf 1007,6 hPa 0,0 l/m 0 min 0,0 UV-I 200 W/m 33,5 km/h (5 Bft)
02.02.2013 13:30 3,7 C 2,3 C 94 % 0 lf 1007,6 hPa 0,0 l/m 2 min 0,0 UV-I 378 W/m 30,9 km/h (5 Bft)
02.02.2013 13:32 3,7 C 2,9 C 93 % 0 lf 1007,5 hPa 0,0 l/m 2 min 0,0 UV-I 350 W/m 25,7 km/h (4 Bft)
02.02.2013 13:34 3,8 C 2,9 C 93 % 0 lf 1007,6 hPa 0,0 l/m 2 min 0,0 UV-I 348 W/m 28,3 km/h (4 Bft)
02.02.2013 13:36 3,9 C 2,9 C 93 % 0 lf 1007,6 hPa 0,0 l/m 2 min 0,0 UV-I 308 W/m 25,7 km/h (4 Bft)
02.02.2013 13:38 3,9 C 3,4 C 93 % 0 lf 1007,7 hPa 0,0 l/m 2 min 0,0 UV-I 297 W/m 12,9 km/h (3 Bft)
02.02.2013 13:40 4,1 C 3,4 C 92 % 0 lf 1007,7 hPa 0,0 l/m 2 min 0,0 UV-I 297 W/m 12,9 km/h (3 Bft)
02.02.2013 13:42 4,2 C 3,4 C 92 % 0 lf 1007,7 hPa 0,0 l/m 2 min 0,0 UV-I 297 W/m 20,6 km/h (4 Bft)
02.02.2013 13:44 4,2 C 3,4 C 91 % 0 lf 1007,8 hPa 0,0 l/m 0 min 0,0 UV-I 148 W/m 28,3 km/h (4 Bft)
02.02.2013 13:46 4,3 C 3,4 C 90 % 0 lf 1007,7 hPa 0,0 l/m 0 min 0,0 UV-I 146 W/m 25,7 km/h (4 Bft)
02.02.2013 13:48 4,3 C 3,4 C 88 % 0 lf 1007,8 hPa 0,0 l/m 0 min 0,0 UV-I 156 W/m 18,0 km/h (3 Bft)
02.02.2013 13:50 4,3 C 3,4 C 87 % 0 lf 1007,8 hPa 0,0 l/m 0 min 0,0 UV-I 139 W/m 25,7 km/h (4 Bft)
02.02.2013 13:52 4,3 C 2,9 C 87 % 0 lf 1007,8 hPa 0,0 l/m 0 min 0,0 UV-I 132 W/m 25,7 km/h (4 Bft)
02.02.2013 13:54 4,3 C 2,9 C 86 % 0 lf 1007,9 hPa 0,0 l/m 0 min 0,0 UV-I 102 W/m 20,6 km/h (4 Bft)
02.02.2013 13:56 4,3 C 2,9 C 85 % 0 lf 1007,9 hPa 0,0 l/m 0 min 0,0 UV-I 137 W/m 23,2 km/h (4 Bft)
02.02.2013 13:58 4,3 C 2,9 C 85 % 0 lf 1008,0 hPa 0,0 l/m 0 min 0,0 UV-I 165 W/m 25,7 km/h (4 Bft)
02.02.2013 14:00 4,3 C 2,9 C 85 % 0 lf 1008,0 hPa 0,0 l/m 0 min 0,0 UV-I 90 W/m 18,0 km/h (3 Bft)
02.02.2013 14:02 4,3 C 2,9 C 84 % 0 lf 1008,0 hPa 0,0 l/m 2 min 0,0 UV-I 355 W/m 23,2 km/h (4 Bft)
02.02.2013 14:06 4,3 C 3,4 C 84 % 0 lf 1008,2 hPa 0,0 l/m 2 min 0,0 UV-I 355 W/m 23,2 km/h (4 Bft)
02.02.2013 14:08 4,3 C 3,4 C 84 % 0 lf 1008,1 hPa 0,0 l/m 2 min 0,0 UV-I 360 W/m 12,9 km/h (3 Bft)
02.02.2013 14:10 4,4 C 3,4 C 84 % 0 lf 1008,2 hPa 0,0 l/m 2 min 0,0 UV-I 353 W/m 20,6 km/h (4 Bft)
02.02.2013 14:12 4,5 C 4,0 C 84 % 0 lf 1008,2 hPa 0,0 l/m 2 min 0,0 UV-I 376 W/m 25,7 km/h (4 Bft)
02.02.2013 14:14 4,6 C 4,0 C 84 % 0 lf 1008,2 hPa 0,0 l/m 2 min 0,0 UV-I 380 W/m 28,3 km/h (4 Bft)
02.02.2013 14:16 4,7 C 4,0 C 82 % 0 lf 1008,4 hPa 0,0 l/m 2 min 0,0 UV-I 373 W/m 30,9 km/h (5 Bft)
02.02.2013 14:18 4,7 C 4,0 C 82 % 0 lf 1008,4 hPa 0,0 l/m 2 min 0,0 UV-I 339 W/m 23,2 km/h (4 Bft)
02.02.2013 14:20 4,8 C 4,0 C 82 % 0 lf 1008,4 hPa 0,0 l/m 2 min 0,0 UV-I 316 W/m 25,7 km/h (4 Bft)
02.02.2013 14:22 4,9 C 4,0 C 78 % 0 lf 1008,5 hPa 0,0 l/m 0 min 0,0 UV-I 54 W/m 25,7 km/h (4 Bft)
02.02.2013 14:24 4,9 C 4,0 C 78 % 0 lf 1008,5 hPa 0,0 l/m 0 min 0,0 UV-I 100 W/m 25,7 km/h (4 Bft)
02.02.2013 14:26 4,9 C 3,4 C 78 % 0 lf 1008,5 hPa 0,0 l/m 0 min 0,0 UV-I 123 W/m 15,4 km/h (3 Bft)
02.02.2013 14:28 4,9 C 4,0 C 79 % 0 lf 1008,6 hPa 0,0 l/m 2 min 0,0 UV-I 380 W/m 20,6 km/h (4 Bft)
02.02.2013 14:30 4,9 C 4,0 C 79 % 0 lf 1008,5 hPa 0,0 l/m 2 min 0,0 UV-I 371 W/m 18,0 km/h (3 Bft)
02.02.2013 14:32 4,9 C 4,0 C 79 % 0 lf 1008,6 hPa 0,0 l/m 2 min 0,0 UV-I 359 W/m 18,0 km/h (3 Bft)
02.02.2013 14:34 4,9 C 4,0 C 78 % 0 lf 1008,5 hPa 0,0 l/m 0 min 0,0 UV-I 63 W/m 20,6 km/h (4 Bft)
02.02.2013 14:36 4,9 C 4,0 C 77 % 0 lf 1008,6 hPa 0,0 l/m 0 min 0,0 UV-I 44 W/m 28,3 km/h (4 Bft)
02.02.2013 14:38 4,9 C 3,4 C 75 % 0 lf 1008,7 hPa 0,0 l/m 0 min 0,0 UV-I 32 W/m 33,5 km/h (5 Bft)
02.02.2013 14:40 4,8 C 3,4 C 74 % 0 lf 1008,7 hPa 0,0 l/m 0 min 0,0 UV-I 26 W/m 28,3 km/h (4 Bft)
02.02.2013 14:42 4,8 C 3,4 C 74 % 0 lf 1008,7 hPa 0,0 l/m 0 min 0,0 UV-I 26 W/m 23,2 km/h (4 Bft)
02.02.2013 14:44 4,7 C 2,9 C 75 % 0 lf 1008,7 hPa 0,0 l/m 0 min 0,0 UV-I 28 W/m 23,2 km/h (4 Bft)
02.02.2013 14:46 4,7 C 2,9 C 75 % 0 lf 1008,7 hPa 0,0 l/m 0 min 0,0 UV-I 33 W/m 20,6 km/h (4 Bft)
02.02.2013 14:48 4,6 C 2,9 C 75 % 0 lf 1008,6 hPa 0,0 l/m 0 min 0,0 UV-I 44 W/m 23,2 km/h (4 Bft)
02.02.2013 14:50 4,5 C 2,9 C 76 % 0 lf 1008,7 hPa 0,0 l/m 0 min 0,0 UV-I 69 W/m 15,4 km/h (3 Bft)
02.02.2013 14:52 4,5 C 2,9 C 76 % 0 lf 1008,7 hPa 0,0 l/m 0 min 0,0 UV-I 84 W/m 15,4 km/h (3 Bft)
02.02.2013 14:54 4,4 C 2,9 C 77 % 0 lf 1008,7 hPa 0,0 l/m 2 min 0,0 UV-I 258 W/m 12,9 km/h (3 Bft)
02.02.2013 14:56 4,4 C 2,9 C 77 % 0 lf 1008,8 hPa 0,0 l/m 0 min 0,0 UV-I 37 W/m 18,0 km/h (3 Bft)
02.02.2013 14:58 4,4 C 2,9 C 77 % 0 lf 1008,8 hPa 0,0 l/m 0 min 0,0 UV-I 33 W/m 20,6 km/h (4 Bft)
02.02.2013 15:00 4,4 C 2,9 C 77 % 0 lf 1008,9 hPa 0,0 l/m 0 min 0,0 UV-I 25 W/m 23,2 km/h (4 Bft)
02.02.2013 15:02 4,4 C 2,9 C 77 % 0 lf 1008,9 hPa 0,0 l/m 0 min 0,0 UV-I 23 W/m 18,0 km/h (3 Bft)
02.02.2013 15:05 4,3 C 2,9 C 77 % 0 lf 1008,9 hPa 0,0 l/m 0 min 0,0 UV-I 26 W/m 18,0 km/h (3 Bft)
02.02.2013 15:06 4,3 C 2,9 C 77 % 0 lf 1008,9 hPa 0,0 l/m 0 min 0,0 UV-I 32 W/m 18,0 km/h (3 Bft)
02.02.2013 15:08 4,3 C 2,9 C 77 % 0 lf 1009,1 hPa 0,0 l/m 0 min 0,0 UV-I 33 W/m 23,2 km/h (4 Bft)
02.02.2013 15:10 4,3 C 2,9 C 76 % 0 lf 1009,1 hPa 0,0 l/m 0 min 0,0 UV-I 35 W/m 20,6 km/h (4 Bft)
02.02.2013 15:12 4,2 C 2,9 C 75 % 0 lf 1009,1 hPa 0,0 l/m 2 min 0,0 UV-I 250 W/m 25,7 km/h (4 Bft)
02.02.2013 15:14 4,3 C 3,4 C 74 % 0 lf 1009,0 hPa 0,0 l/m 2 min 0,0 UV-I 248 W/m 25,7 km/h (4 Bft)
02.02.2013 15:16 4,3 C 3,4 C 75 % 0 lf 1008,9 hPa 0,0 l/m 2 min 0,0 UV-I 239 W/m 23,2 km/h (4 Bft)
02.02.2013 15:18 4,3 C 3,4 C 75 % 0 lf 1009,0 hPa 0,0 l/m 2 min 0,0 UV-I 234 W/m 28,3 km/h (4 Bft)
02.02.2013 15:20 4,4 C 3,4 C 75 % 0 lf 1009,0 hPa 0,0 l/m 0 min 0,0 UV-I 37 W/m 23,2 km/h (4 Bft)
02.02.2013 15:22 4,4 C 3,4 C 74 % 0 lf 1009,1 hPa 0,0 l/m 0 min 0,0 UV-I 44 W/m 20,6 km/h (4 Bft)
02.02.2013 15:24 4,4 C 3,4 C 74 % 0 lf 1009,1 hPa 0,0 l/m 0 min 0,0 UV-I 46 W/m 28,3 km/h (4 Bft)
02.02.2013 15:26 4,4 C 3,4 C 74 % 0 lf 1009,2 hPa 0,0 l/m 0 min 0,0 UV-I 53 W/m 25,7 km/h (4 Bft)
02.02.2013 15:28 4,4 C 2,9 C 74 % 0 lf 1009,2 hPa 0,0 l/m 0 min 0,0 UV-I 56 W/m 20,6 km/h (4 Bft)
02.02.2013 15:30 4,4 C 2,9 C 74 % 0 lf 1009,2 hPa 0,0 l/m 0 min 0,0 UV-I 58 W/m 18,0 km/h (3 Bft)
02.02.2013 15:32 4,4 C 2,9 C 74 % 0 lf 1009,3 hPa 0,0 l/m 0 min 0,0 UV-I 67 W/m 18,0 km/h (3 Bft)
02.02.2013 15:34 4,4 C 2,9 C 75 % 0 lf 1009,3 hPa 0,0 l/m 0 min 0,0 UV-I 37 W/m 7,7 km/h (2 Bft)
02.02.2013 15:36 4,4 C 2,9 C 75 % 0 lf 1009,4 hPa 0,0 l/m 0 min 0,0 UV-I 42 W/m 15,4 km/h (3 Bft)
02.02.2013 15:38 4,3 C 2,9 C 75 % 0 lf 1009,4 hPa 0,0 l/m 0 min 0,0 UV-I 83 W/m 12,9 km/h (3 Bft)
02.02.2013 15:40 4,3 C 2,9 C 75 % 0 lf 1009,3 hPa 0,0 l/m 2 min 0,0 UV-I 209 W/m 23,2 km/h (4 Bft)
02.02.2013 15:42 4,3 C 2,9 C 74 % 0 lf 1009,5 hPa 0,0 l/m 2 min 0,0 UV-I 204 W/m 18,0 km/h (3 Bft)
02.02.2013 15:44 4,3 C 3,4 C 75 % 0 lf 1009,4 hPa 0,0 l/m 2 min 0,0 UV-I 158 W/m 20,6 km/h (4 Bft)
02.02.2013 15:46 4,3 C 3,4 C 74 % 0 lf 1009,4 hPa 0,0 l/m 0 min 0,0 UV-I 32 W/m 15,4 km/h (3 Bft)
02.02.2013 15:48 4,3 C 2,9 C 74 % 0 lf 1009,4 hPa 0,0 l/m 0 min 0,0 UV-I 30 W/m 23,2 km/h (4 Bft)
02.02.2013 15:50 4,4 C 2,9 C 72 % 0 lf 1009,4 hPa 0,0 l/m 0 min 0,0 UV-I 40 W/m 23,2 km/h (4 Bft)
02.02.2013 15:52 4,4 C 2,9 C 73 % 0 lf 1009,5 hPa 0,0 l/m 0 min 0,0 UV-I 40 W/m 15,4 km/h (3 Bft)
02.02.2013 15:54 4,4 C 2,9 C 73 % 0 lf 1009,5 hPa 0,0 l/m 0 min 0,0 UV-I 39 W/m 25,7 km/h (4 Bft)
02.02.2013 15:56 4,4 C 2,9 C 72 % 0 lf 1009,5 hPa 0,0 l/m 0 min 0,0 UV-I 32 W/m 23,2 km/h (4 Bft)
02.02.2013 15:58 4,4 C 2,9 C 72 % 0 lf 1009,6 hPa 0,0 l/m 0 min 0,0 UV-I 30 W/m 15,4 km/h (3 Bft)
02.02.2013 16:00 4,4 C 2,9 C 72 % 0 lf 1009,6 hPa 0,0 l/m 0 min 0,0 UV-I 26 W/m 12,9 km/h (3 Bft)
02.02.2013 16:02 4,4 C 2,9 C 72 % 0 lf 1009,7 hPa 0,0 l/m 0 min 0,0 UV-I 25 W/m 7,7 km/h (2 Bft)
02.02.2013 16:06 4,3 C 2,3 C 73 % 0 lf 1009,7 hPa 0,0 l/m 0 min 0,0 UV-I 23 W/m 15,4 km/h (3 Bft)
02.02.2013 16:08 4,3 C 2,9 C 73 % 0 lf 1009,8 hPa 0,0 l/m 0 min 0,0 UV-I 26 W/m 20,6 km/h (4 Bft)
02.02.2013 16:10 4,3 C 2,3 C 73 % 0 lf 1009,8 hPa 0,0 l/m 0 min 0,0 UV-I 33 W/m 7,7 km/h (2 Bft)
02.02.2013 16:12 4,3 C 2,3 C 73 % 0 lf 1009,8 hPa 0,0 l/m 0 min 0,0 UV-I 35 W/m 12,9 km/h (3 Bft)
02.02.2013 16:14 4,2 C 2,3 C 73 % 0 lf 1009,8 hPa 0,0 l/m 0 min 0,0 UV-I 37 W/m 20,6 km/h (4 Bft)
02.02.2013 16:16 4,2 C 2,9 C 74 % 0 lf 1009,9 hPa 0,0 l/m 0 min 0,0 UV-I 35 W/m 12,9 km/h (3 Bft)
02.02.2013 16:18 4,2 C 2,9 C 74 % 0 lf 1009,9 hPa 0,0 l/m 0 min 0,0 UV-I 37 W/m 10,3 km/h (2 Bft)
02.02.2013 16:20 4,2 C 2,9 C 74 % 0 lf 1010,0 hPa 0,0 l/m 0 min 0,0 UV-I 39 W/m 10,3 km/h (2 Bft)
02.02.2013 16:22 4,2 C 2,9 C 74 % 0 lf 1009,9 hPa 0,0 l/m 0 min 0,0 UV-I 33 W/m 15,4 km/h (3 Bft)
02.02.2013 16:24 4,2 C 2,9 C 75 % 0 lf 1010,0 hPa 0,0 l/m 0 min 0,0 UV-I 33 W/m 15,4 km/h (3 Bft)
02.02.2013 16:26 4,2 C 2,9 C 75 % 0 lf 1010,0 hPa 0,0 l/m 0 min 0,0 UV-I 32 W/m 10,3 km/h (2 Bft)
02.02.2013 16:28 4,1 C 2,9 C 74 % 0 lf 1010,1 hPa 0,0 l/m 0 min 0,0 UV-I 35 W/m 18,0 km/h (3 Bft)
02.02.2013 16:30 4,2 C 2,9 C 75 % 0 lf 1010,1 hPa 0,0 l/m 0 min 0,0 UV-I 44 W/m 0,0 km/h (0 Bft)
02.02.2013 16:32 4,2 C 2,9 C 75 % 0 lf 1010,2 hPa 0,0 l/m 0 min 0,0 UV-I 47 W/m 12,9 km/h (3 Bft)
02.02.2013 16:34 4,2 C 2,9 C 75 % 0 lf 1010,2 hPa 0,0 l/m 0 min 0,0 UV-I 42 W/m 10,3 km/h (2 Bft)
02.02.2013 16:36 4,2 C 2,9 C 75 % 0 lf 1010,2 hPa 0,0 l/m 0 min 0,0 UV-I 35 W/m 10,3 km/h (2 Bft)
02.02.2013 16:38 4,2 C 2,9 C 75 % 0 lf 1010,3 hPa 0,0 l/m 0 min 0,0 UV-I 32 W/m 12,9 km/h (3 Bft)
02.02.2013 16:40 4,2 C 2,9 C 75 % 0 lf 1010,3 hPa 0,0 l/m 0 min 0,0 UV-I 37 W/m 25,7 km/h (4 Bft)
02.02.2013 16:42 4,2 C 2,9 C 74 % 0 lf 1010,3 hPa 0,0 l/m 0 min 0,0 UV-I 44 W/m 23,2 km/h (4 Bft)
02.02.2013 16:44 4,2 C 2,9 C 74 % 0 lf 1010,3 hPa 0,0 l/m 2 min 0,0 UV-I 49 W/m 18,0 km/h (3 Bft)
02.02.2013 16:46 4,2 C 2,9 C 75 % 0 lf 1010,4 hPa 0,0 l/m 2 min 0,0 UV-I 49 W/m 10,3 km/h (2 Bft)
02.02.2013 16:48 4,2 C 2,9 C 75 % 0 lf 1010,4 hPa 0,0 l/m 0 min 0,0 UV-I 42 W/m 18,0 km/h (3 Bft)
02.02.2013 16:50 4,3 C 3,4 C 75 % 0 lf 1010,4 hPa 0,0 l/m 0 min 0,0 UV-I 35 W/m 7,7 km/h (2 Bft)
02.02.2013 16:52 4,3 C 3,4 C 76 % 0 lf 1010,4 hPa 0,0 l/m 0 min 0,0 UV-I 26 W/m 15,4 km/h (3 Bft)
02.02.2013 16:54 4,3 C 2,9 C 76 % 0 lf 1010,5 hPa 0,0 l/m 0 min 0,0 UV-I 23 W/m 15,4 km/h (3 Bft)
02.02.2013 16:56 4,3 C 2,9 C 76 % 0 lf 1010,5 hPa 0,0 l/m 0 min 0,0 UV-I 21 W/m 25,7 km/h (4 Bft)
02.02.2013 16:58 4,3 C 2,9 C 76 % 0 lf 1010,5 hPa 0,0 l/m 0 min 0,0 UV-I 19 W/m 7,7 km/h (2 Bft)
02.02.2013 17:00 4,3 C 2,9 C 76 % 0 lf 1010,6 hPa 0,0 l/m 0 min 0,0 UV-I 18 W/m 10,3 km/h (2 Bft)
02.02.2013 17:02 4,3 C 2,9 C 76 % 0 lf 1010,6 hPa 0,0 l/m 0 min 0,0 UV-I 16 W/m 5,1 km/h (1 Bft)
02.02.2013 17:06 4,3 C 2,9 C 77 % 0 lf 1010,7 hPa 0,0 l/m 0 min 0,0 UV-I 12 W/m 5,1 km/h (1 Bft)
02.02.2013 17:08 4,3 C 2,9 C 77 % 0 lf 1010,7 hPa 0,0 l/m 0 min 0,0 UV-I 12 W/m 7,7 km/h (2 Bft)
02.02.2013 17:10 4,3 C 2,9 C 77 % 0 lf 1010,7 hPa 0,0 l/m 0 min 0,0 UV-I 11 W/m 7,7 km/h (2 Bft)
02.02.2013 17:12 4,3 C 2,3 C 77 % 0 lf 1010,8 hPa 0,0 l/m 0 min 0,0 UV-I 11 W/m 7,7 km/h (2 Bft)
02.02.2013 17:14 4,2 C 2,3 C 77 % 0 lf 1010,7 hPa 0,0 l/m 0 min 0,0 UV-I 9 W/m 2,6 km/h (1 Bft)
02.02.2013 17:16 4,2 C 2,3 C 77 % 0 lf 1010,7 hPa 0,0 l/m 0 min 0,0 UV-I 7 W/m 15,4 km/h (3 Bft)
02.02.2013 17:18 4,2 C 2,3 C 77 % 0 lf 1010,8 hPa 0,0 l/m 0 min 0,0 UV-I 7 W/m 7,7 km/h (2 Bft)
02.02.2013 17:20 4,2 C 2,3 C 77 % 0 lf 1010,8 hPa 0,0 l/m 0 min 0,0 UV-I 5 W/m 5,1 km/h (1 Bft)
02.02.2013 17:22 4,1 C 2,3 C 77 % 0 lf 1010,8 hPa 0,0 l/m 0 min 0,0 UV-I 5 W/m 7,7 km/h (2 Bft)
02.02.2013 17:24 4,1 C 2,3 C 77 % 0 lf 1010,8 hPa 0,0 l/m 0 min 0,0 UV-I 5 W/m 18,0 km/h (3 Bft)
02.02.2013 17:26 4,0 C 2,3 C 77 % 0 lf 1010,9 hPa 0,0 l/m 0 min 0,0 UV-I 0 W/m 7,7 km/h (2 Bft)
02.02.2013 17:28 4,0 C 1,8 C 78 % 0 lf 1010,9 hPa 0,0 l/m 0 min 0,0 UV-I 0 W/m 10,3 km/h (2 Bft)
02.02.2013 17:30 3,9 C 1,8 C 78 % 0 lf 1010,9 hPa 0,0 l/m 0 min 0,0 UV-I 0 W/m 0,0 km/h (0 Bft)
02.02.2013 17:32 3,9 C 1,8 C 78 % 0 lf 1010,9 hPa 0,0 l/m 0 min 0,0 UV-I 0 W/m 0,0 km/h (0 Bft)
02.02.2013 17:34 3,8 C 1,8 C 78 % 0 lf 1011,1 hPa 0,0 l/m 0 min 0,0 UV-I 0 W/m 7,7 km/h (2 Bft)
02.02.2013 17:36 3,8 C 1,8 C 78 % 0 lf 1011,1 hPa 0,0 l/m 0 min 0,0 UV-I 0 W/m 0,0 km/h (0 Bft)
02.02.2013 17:38 3,8 C 1,2 C 78 % 0 lf 1011,1 hPa 0,0 l/m 0 min 0,0 UV-I 0 W/m 5,1 km/h (1 Bft)
02.02.2013 17:40 3,7 C 1,2 C 78 % 0 lf 1011,1 hPa 0,0 l/m 0 min 0,0 UV-I 0 W/m 2,6 km/h (1 Bft)
02.02.2013 17:42 3,7 C 1,2 C 79 % 0 lf 1011,2 hPa 0,0 l/m 0 min 0,0 UV-I 0 W/m 0,0 km/h (0 Bft)
02.02.2013 17:44 3,6 C 1,2 C 79 % 0 lf 1011,3 hPa 0,0 l/m 0 min 0,0 UV-I 0 W/m 0,0 km/h (0 Bft)
02.02.2013 17:46 3,6 C 1,2 C 79 % 0 lf 1011,4 hPa 0,0 l/m 0 min 0,0 UV-I 0 W/m 0,0 km/h (0 Bft)
02.02.2013 17:48 3,5 C 1,2 C 80 % 0 lf 1011,4 hPa 0,0 l/m 0 min 0,0 UV-I 0 W/m 2,6 km/h (1 Bft)
02.02.2013 17:50 3,4 C 1,2 C 80 % 0 lf 1011,4 hPa 0,0 l/m 0 min 0,0 UV-I 0 W/m 0,0 km/h (0 Bft)
02.02.2013 17:52 3,4 C 1,8 C 80 % 0 lf 1011,4 hPa 0,0 l/m 0 min 0,0 UV-I 0 W/m 5,1 km/h (1 Bft)
02.02.2013 17:54 3,4 C 1,8 C 81 % 0 lf 1011,4 hPa 0,0 l/m 0 min 0,0 UV-I 0 W/m 2,6 km/h (1 Bft)
02.02.2013 17:56 3,3 C 1,8 C 81 % 0 lf 1011,5 hPa 0,0 l/m 0 min 0,0 UV-I 0 W/m 10,3 km/h (2 Bft)
02.02.2013 17:58 3,3 C 1,8 C 81 % 0 lf 1011,6 hPa 0,0 l/m 0 min 0,0 UV-I 0 W/m 20,6 km/h (4 Bft)
02.02.2013 18:00 3,3 C 2,3 C 82 % 0 lf 1011,7 hPa 0,0 l/m 0 min 0,0 UV-I 0 W/m 10,3 km/h (2 Bft)
02.02.2013 18:02 3,3 C 2,3 C 82 % 2 lf 1011,8 hPa 0,0 l/m 0 min 0,0 UV-I 0 W/m 7,7 km/h (2 Bft)
02.02.2013 18:06 3,3 C 1,8 C 83 % 13 lf 1012,1 hPa 0,0 l/m 0 min 0,0 UV-I 0 W/m 18,0 km/h (3 Bft)
02.02.2013 18:08 3,3 C 1,8 C 83 % 13 lf 1012,2 hPa 0,0 l/m 0 min 0,0 UV-I 0 W/m 33,5 km/h (5 Bft)
02.02.2013 18:10 3,3 C 1,2 C 84 % 12 lf 1012,3 hPa 0,0 l/m 0 min 0,0 UV-I 0 W/m 36,0 km/h (5 Bft)
02.02.2013 18:12 3,3 C 1,2 C 85 % 6 lf 1012,3 hPa 0,2 l/m 0 min 0,0 UV-I 0 W/m 33,5 km/h (5 Bft)
02.02.2013 18:14 3,2 C 1,2 C 85 % 7 lf 1012,3 hPa 0,0 l/m 0 min 0,0 UV-I 0 W/m 28,3 km/h (4 Bft)
02.02.2013 18:16 3,2 C 0,7 C 86 % 7 lf 1012,3 hPa 0,0 l/m 0 min 0,0 UV-I 0 W/m 23,2 km/h (4 Bft)
02.02.2013 18:18 3,1 C 0,7 C 86 % 10 lf 1012,3 hPa 0,0 l/m 0 min 0,0 UV-I 0 W/m 18,0 km/h (3 Bft)
02.02.2013 18:20 3,0 C 0,7 C 87 % 7 lf 1012,3 hPa 0,0 l/m 0 min 0,0 UV-I 0 W/m 20,6 km/h (4 Bft)
02.02.2013 18:22 2,9 C 0,7 C 88 % 4 lf 1012,3 hPa 0,0 l/m 0 min 0,0 UV-I 0 W/m 15,4 km/h (3 Bft)
02.02.2013 18:24 2,8 C 0,7 C 88 % 3 lf 1012,4 hPa 0,0 l/m 0 min 0,0 UV-I 0 W/m 12,9 km/h (3 Bft)
02.02.2013 18:26 2,8 C 0,7 C 88 % 1 lf 1012,4 hPa 0,0 l/m 0 min 0,0 UV-I 0 W/m 10,3 km/h (2 Bft)
02.02.2013 18:28 2,8 C 0,7 C 88 % 1 lf 1012,4 hPa 0,0 l/m 0 min 0,0 UV-I 0 W/m 10,3 km/h (2 Bft)
02.02.2013 18:30 2,7 C 0,7 C 89 % 0 lf 1012,5 hPa 0,0 l/m 0 min 0,0 UV-I 0 W/m 10,3 km/h (2 Bft)
02.02.2013 18:32 2,7 C 0,7 C 89 % 0 lf 1012,5 hPa 0,0 l/m 0 min 0,0 UV-I 0 W/m 10,3 km/h (2 Bft)
02.02.2013 18:34 2,7 C 0,7 C 89 % 0 lf 1012,6 hPa 0,0 l/m 0 min 0,0 UV-I 0 W/m 7,7 km/h (2 Bft)
02.02.2013 18:36 2,6 C 0,7 C 90 % 0 lf 1012,6 hPa 0,0 l/m 0 min 0,0 UV-I 0 W/m 10,3 km/h (2 Bft)
02.02.2013 18:38 2,6 C 0,7 C 90 % 0 lf 1012,6 hPa 0,0 l/m 0 min 0,0 UV-I 0 W/m 7,7 km/h (2 Bft)
02.02.2013 18:40 2,6 C 0,7 C 90 % 0 lf 1012,6 hPa 0,0 l/m 0 min 0,0 UV-I 0 W/m 0,0 km/h (0 Bft)
02.02.2013 18:42 2,6 C 0,7 C 90 % 0 lf 1012,7 hPa 0,0 l/m 0 min 0,0 UV-I 0 W/m 2,6 km/h (1 Bft)
02.02.2013 18:44 2,5 C 0,7 C 90 % 0 lf 1012,7 hPa 0,0 l/m 0 min 0,0 UV-I 0 W/m 7,7 km/h (2 Bft)
02.02.2013 18:46 2,5 C 0,7 C 90 % 0 lf 1012,7 hPa 0,0 l/m 0 min 0,0 UV-I 0 W/m 0,0 km/h (0 Bft)
02.02.2013 18:48 2,5 C 0,7 C 91 % 0 lf 1012,7 hPa 0,0 l/m 0 min 0,0 UV-I 0 W/m 7,7 km/h (2 Bft)
02.02.2013 18:50 2,4 C 0,7 C 90 % 0 lf 1012,7 hPa 0,0 l/m 0 min 0,0 UV-I 0 W/m 7,7 km/h (2 Bft)
02.02.2013 18:52 2,4 C 0,7 C 91 % 0 lf 1012,8 hPa 0,0 l/m 0 min 0,0 UV-I 0 W/m 2,6 km/h (1 Bft)
02.02.2013 18:54 2,4 C 0,7 C 91 % 0 lf 1012,7 hPa 0,0 l/m 0 min 0,0 UV-I 0 W/m 0,0 km/h (0 Bft)
02.02.2013 18:56 2,4 C 0,7 C 91 % 0 lf 1012,8 hPa 0,0 l/m 0 min 0,0 UV-I 0 W/m 0,0 km/h (0 Bft)
02.02.2013 18:58 2,4 C 0,7 C 91 % 0 lf 1012,8 hPa 0,0 l/m 0 min 0,0 UV-I 0 W/m 2,6 km/h (1 Bft)
02.02.2013 19:00 2,3 C 0,7 C 91 % 0 lf 1012,8 hPa 0,0 l/m 0 min 0,0 UV-I 0 W/m 0,0 km/h (0 Bft)
02.02.2013 19:02 2,3 C 0,1 C 91 % 0 lf 1012,9 hPa 0,0 l/m 0 min 0,0 UV-I 0 W/m 0,0 km/h (0 Bft)
02.02.2013 19:06 2,3 C 0,1 C 91 % 0 lf 1012,9 hPa 0,0 l/m 0 min 0,0 UV-I 0 W/m 0,0 km/h (0 Bft)
02.02.2013 19:08 2,2 C 0,1 C 91 % 0 lf 1012,9 hPa 0,0 l/m 0 min 0,0 UV-I 0 W/m 0,0 km/h (0 Bft)
02.02.2013 19:10 2,2 C 0,1 C 91 % 0 lf 1012,9 hPa 0,0 l/m 0 min 0,0 UV-I 0 W/m 0,0 km/h (0 Bft)
02.02.2013 19:12 2,2 C 0,1 C 91 % 0 lf 1013,0 hPa 0,0 l/m 0 min 0,0 UV-I 0 W/m 0,0 km/h (0 Bft)
02.02.2013 19:14 2,2 C -0,4 C 91 % 0 lf 1013,0 hPa 0,0 l/m 0 min 0,0 UV-I 0 W/m 0,0 km/h (0 Bft)
02.02.2013 19:16 2,2 C -0,4 C 91 % 0 lf 1013,1 hPa 0,0 l/m 0 min 0,0 UV-I 0 W/m 0,0 km/h (0 Bft)
02.02.2013 19:18 2,1 C -0,4 C 91 % 0 lf 1013,1 hPa 0,0 l/m 0 min 0,0 UV-I 0 W/m 0,0 km/h (0 Bft)
02.02.2013 19:20 2,1 C -0,4 C 91 % 0 lf 1013,2 hPa 0,0 l/m 0 min 0,0 UV-I 0 W/m 0,0 km/h (0 Bft)
02.02.2013 19:22 2,1 C -0,4 C 91 % 0 lf 1013,2 hPa 0,0 l/m 0 min 0,0 UV-I 0 W/m 0,0 km/h (0 Bft)
02.02.2013 19:24 2,0 C -0,4 C 91 % 0 lf 1013,2 hPa 0,0 l/m 0 min 0,0 UV-I 0 W/m 0,0 km/h (0 Bft)
02.02.2013 19:26 1,9 C -0,4 C 91 % 0 lf 1013,2 hPa 0,0 l/m 0 min 0,0 UV-I 0 W/m 0,0 km/h (0 Bft)
02.02.2013 19:28 1,9 C 0,1 C 91 % 0 lf 1013,2 hPa 0,0 l/m 0 min 0,0 UV-I 0 W/m 0,0 km/h (0 Bft)
02.02.2013 19:30 1,8 C 0,1 C 91 % 0 lf 1013,1 hPa 0,0 l/m 0 min 0,0 UV-I 0 W/m 0,0 km/h (0 Bft)
02.02.2013 19:32 1,8 C 0,1 C 91 % 0 lf 1013,2 hPa 0,0 l/m 0 min 0,0 UV-I 0 W/m 7,7 km/h (2 Bft)
02.02.2013 19:34 1,8 C 0,1 C 91 % 0 lf 1013,3 hPa 0,0 l/m 0 min 0,0 UV-I 0 W/m 0,0 km/h (0 Bft)
02.02.2013 19:36 1,8 C 0,1 C 91 % 0 lf 1013,3 hPa 0,0 l/m 0 min 0,0 UV-I 0 W/m 5,1 km/h (1 Bft)
02.02.2013 19:38 1,8 C 0,1 C 92 % 0 lf 1013,3 hPa 0,0 l/m 0 min 0,0 UV-I 0 W/m 5,1 km/h (1 Bft)
02.02.2013 19:40 1,8 C 0,1 C 92 % 0 lf 1013,3 hPa 0,0 l/m 0 min 0,0 UV-I 0 W/m 0,0 km/h (0 Bft)
02.02.2013 19:42 1,8 C 0,1 C 92 % 0 lf 1013,4 hPa 0,0 l/m 0 min 0,0 UV-I 0 W/m 2,6 km/h (1 Bft)
02.02.2013 19:44 1,8 C 0,1 C 92 % 0 lf 1013,4 hPa 0,0 l/m 0 min 0,0 UV-I 0 W/m 5,1 km/h (1 Bft)
02.02.2013 19:46 1,7 C 0,1 C 92 % 0 lf 1013,5 hPa 0,0 l/m 0 min 0,0 UV-I 0 W/m 0,0 km/h (0 Bft)
02.02.2013 19:48 1,7 C 0,1 C 92 % 0 lf 1013,5 hPa 0,0 l/m 0 min 0,0 UV-I 0 W/m 0,0 km/h (0 Bft)
02.02.2013 19:50 1,8 C 0,1 C 92 % 0 lf 1013,6 hPa 0,0 l/m 0 min 0,0 UV-I 0 W/m 10,3 km/h (2 Bft)
02.02.2013 19:52 1,8 C 0,1 C 92 % 0 lf 1013,6 hPa 0,0 l/m 0 min 0,0 UV-I 0 W/m 0,0 km/h (0 Bft)
02.02.2013 19:54 1,7 C 0,1 C 92 % 0 lf 1013,6 hPa 0,0 l/m 0 min 0,0 UV-I 0 W/m 5,1 km/h (1 Bft)
02.02.2013 19:56 1,7 C 0,1 C 92 % 0 lf 1013,6 hPa 0,0 l/m 0 min 0,0 UV-I 0 W/m 2,6 km/h (1 Bft)
02.02.2013 19:58 1,7 C 0,1 C 92 % 0 lf 1013,6 hPa 0,0 l/m 0 min 0,0 UV-I 0 W/m 0,0 km/h (0 Bft)
02.02.2013 20:00 1,7 C 0,1 C 92 % 0 lf 1013,6 hPa 0,0 l/m 0 min 0,0 UV-I 0 W/m 0,0 km/h (0 Bft)
02.02.2013 20:02 1,7 C 0,1 C 92 % 0 lf 1013,7 hPa 0,0 l/m 0 min 0,0 UV-I 0 W/m 2,6 km/h (1 Bft)
02.02.2013 20:06 1,7 C 0,1 C 92 % 0 lf 1013,7 hPa 0,0 l/m 0 min 0,0 UV-I 0 W/m 0,0 km/h (0 Bft)
02.02.2013 20:08 1,7 C 0,1 C 92 % 0 lf 1013,7 hPa 0,0 l/m 0 min 0,0 UV-I 0 W/m 2,6 km/h (1 Bft)
02.02.2013 20:10 1,7 C 0,7 C 92 % 0 lf 1013,7 hPa 0,0 l/m 0 min 0,0 UV-I 0 W/m 0,0 km/h (0 Bft)
02.02.2013 20:12 1,7 C 0,7 C 93 % 0 lf 1013,7 hPa 0,0 l/m 0 min 0,0 UV-I 0 W/m 2,6 km/h (1 Bft)
02.02.2013 20:14 1,7 C 0,7 C 93 % 0 lf 1013,7 hPa 0,0 l/m 0 min 0,0 UV-I 0 W/m 5,1 km/h (1 Bft)
02.02.2013 20:16 1,7 C 0,7 C 93 % 0 lf 1013,7 hPa 0,0 l/m 0 min 0,0 UV-I 0 W/m 0,0 km/h (0 Bft)
02.02.2013 20:18 1,7 C 0,7 C 93 % 0 lf 1013,7 hPa 0,0 l/m 0 min 0,0 UV-I 0 W/m 5,1 km/h (1 Bft)
02.02.2013 20:20 1,8 C 0,7 C 93 % 0 lf 1013,8 hPa 0,0 l/m 0 min 0,0 UV-I 0 W/m 12,9 km/h (3 Bft)
02.02.2013 20:22 1,8 C 0,7 C 93 % 0 lf 1013,8 hPa 0,0 l/m 0 min 0,0 UV-I 0 W/m 10,3 km/h (2 Bft)
02.02.2013 20:24 1,8 C 1,2 C 93 % 0 lf 1013,7 hPa 0,0 l/m 0 min 0,0 UV-I 0 W/m 7,7 km/h (2 Bft)
02.02.2013 20:26 1,8 C 1,2 C 93 % 0 lf 1013,9 hPa 0,0 l/m 0 min 0,0 UV-I 0 W/m 10,3 km/h (2 Bft)
02.02.2013 20:28 1,9 C 1,2 C 93 % 0 lf 1013,9 hPa 0,0 l/m 0 min 0,0 UV-I 0 W/m 5,1 km/h (1 Bft)
02.02.2013 20:30 1,9 C 1,2 C 93 % 0 lf 1013,9 hPa 0,0 l/m 0 min 0,0 UV-I 0 W/m 7,7 km/h (2 Bft)
02.02.2013 20:32 1,9 C 1,2 C 93 % 0 lf 1013,9 hPa 0,0 l/m 0 min 0,0 UV-I 0 W/m 2,6 km/h (1 Bft)
02.02.2013 20:34 2,0 C 1,2 C 93 % 0 lf 1013,8 hPa 0,0 l/m 0 min 0,0 UV-I 0 W/m 10,3 km/h (2 Bft)
02.02.2013 20:36 2,0 C 1,2 C 93 % 0 lf 1013,7 hPa 0,0 l/m 0 min 0,0 UV-I 0 W/m 5,1 km/h (1 Bft)
02.02.2013 20:38 2,0 C 1,2 C 93 % 0 lf 1013,7 hPa 0,0 l/m 0 min 0,0 UV-I 0 W/m 7,7 km/h (2 Bft)
02.02.2013 20:40 2,1 C 1,2 C 93 % 0 lf 1013,8 hPa 0,0 l/m 0 min 0,0 UV-I 0 W/m 2,6 km/h (1 Bft)
02.02.2013 20:42 2,1 C 1,2 C 93 % 0 lf 1013,9 hPa 0,0 l/m 0 min 0,0 UV-I 0 W/m 18,0 km/h (3 Bft)
02.02.2013 20:44 2,1 C 1,2 C 93 % 0 lf 1013,9 hPa 0,0 l/m 0 min 0,0 UV-I 0 W/m 7,7 km/h (2 Bft)
02.02.2013 20:46 2,2 C 1,2 C 93 % 0 lf 1014,0 hPa 0,0 l/m 0 min 0,0 UV-I 0 W/m 0,0 km/h (0 Bft)
02.02.2013 20:48 2,2 C 1,2 C 93 % 0 lf 1014,0 hPa 0,0 l/m 0 min 0,0 UV-I 0 W/m 2,6 km/h (1 Bft)
02.02.2013 20:50 2,2 C 1,2 C 92 % 0 lf 1013,9 hPa 0,0 l/m 0 min 0,0 UV-I 0 W/m 5,1 km/h (1 Bft)
02.02.2013 20:52 2,2 C 1,2 C 92 % 0 lf 1014,0 hPa 0,0 l/m 0 min 0,0 UV-I 0 W/m 7,7 km/h (2 Bft)
02.02.2013 20:54 2,2 C 1,2 C 92 % 0 lf 1014,0 hPa 0,0 l/m 0 min 0,0 UV-I 0 W/m 5,1 km/h (1 Bft)
02.02.2013 20:56 2,3 C 1,8 C 92 % 0 lf 1014,0 hPa 0,0 l/m 0 min 0,0 UV-I 0 W/m 10,3 km/h (2 Bft)
02.02.2013 20:58 2,3 C 1,8 C 92 % 0 lf 1014,1 hPa 0,0 l/m 0 min 0,0 UV-I 0 W/m 5,1 km/h (1 Bft)
02.02.2013 21:00 2,3 C 1,8 C 92 % 0 lf 1013,9 hPa 0,0 l/m 0 min 0,0 UV-I 0 W/m 5,1 km/h (1 Bft)
02.02.2013 21:02 2,3 C 1,8 C 92 % 0 lf 1014,0 hPa 0,0 l/m 0 min 0,0 UV-I 0 W/m 7,7 km/h (2 Bft)
02.02.2013 21:06 2,4 C 1,8 C 91 % 0 lf 1014,0 hPa 0,0 l/m 0 min 0,0 UV-I 0 W/m 2,6 km/h (1 Bft)
02.02.2013 21:08 2,4 C 1,8 C 91 % 0 lf 1014,1 hPa 0,0 l/m 0 min 0,0 UV-I 0 W/m 5,1 km/h (1 Bft)
02.02.2013 21:10 2,4 C 1,8 C 91 % 0 lf 1014,1 hPa 0,0 l/m 0 min 0,0 UV-I 0 W/m 7,7 km/h (2 Bft)
02.02.2013 21:12 2,4 C 1,8 C 91 % 0 lf 1014,1 hPa 0,0 l/m 0 min 0,0 UV-I 0 W/m 7,7 km/h (2 Bft)
02.02.2013 21:14 2,4 C 1,8 C 91 % 0 lf 1014,1 hPa 0,0 l/m 0 min 0,0 UV-I 0 W/m 2,6 km/h (1 Bft)
02.02.2013 21:16 2,5 C 1,8 C 91 % 0 lf 1014,1 hPa 0,0 l/m 0 min 0,0 UV-I 0 W/m 7,7 km/h (2 Bft)
02.02.2013 21:18 2,5 C 1,8 C 91 % 0 lf 1014,1 hPa 0,0 l/m 0 min 0,0 UV-I 0 W/m 7,7 km/h (2 Bft)
02.02.2013 21:20 2,5 C 1,8 C 91 % 2 lf 1014,2 hPa 0,0 l/m 0 min 0,0 UV-I 0 W/m 18,0 km/h (3 Bft)
02.02.2013 21:22 2,5 C 1,8 C 91 % 3 lf 1014,1 hPa 0,0 l/m 0 min 0,0 UV-I 0 W/m 10,3 km/h (2 Bft)
02.02.2013 21:24 2,6 C 1,8 C 91 % 4 lf 1014,1 hPa 0,0 l/m 0 min 0,0 UV-I 0 W/m 7,7 km/h (2 Bft)
02.02.2013 21:26 2,6 C 1,8 C 91 % 4 lf 1014,1 hPa 0,0 l/m 0 min 0,0 UV-I 0 W/m 7,7 km/h (2 Bft)
02.02.2013 21:28 2,6 C 1,2 C 91 % 8 lf 1014,2 hPa 0,0 l/m 0 min 0,0 UV-I 0 W/m 12,9 km/h (3 Bft)
02.02.2013 21:30 2,6 C 1,2 C 91 % 6 lf 1014,2 hPa 0,0 l/m 0 min 0,0 UV-I 0 W/m 7,7 km/h (2 Bft)
02.02.2013 21:32 2,6 C 1,2 C 91 % 3 lf 1014,2 hPa 0,0 l/m 0 min 0,0 UV-I 0 W/m 10,3 km/h (2 Bft)
02.02.2013 21:34 2,6 C 1,2 C 91 % 2 lf 1014,2 hPa 0,0 l/m 0 min 0,0 UV-I 0 W/m 2,6 km/h (1 Bft)
02.02.2013 21:36 2,6 C 1,2 C 91 % 0 lf 1014,2 hPa 0,0 l/m 0 min 0,0 UV-I 0 W/m 15,4 km/h (3 Bft)
02.02.2013 21:38 2,6 C 1,8 C 91 % 0 lf 1014,3 hPa 0,0 l/m 0 min 0,0 UV-I 0 W/m 10,3 km/h (2 Bft)
02.02.2013 21:40 2,7 C 1,8 C 91 % 0 lf 1014,3 hPa 0,0 l/m 0 min 0,0 UV-I 0 W/m 7,7 km/h (2 Bft)
02.02.2013 21:42 2,7 C 1,8 C 91 % 0 lf 1014,2 hPa 0,0 l/m 0 min 0,0 UV-I 0 W/m 5,1 km/h (1 Bft)
02.02.2013 21:44 2,7 C 1,8 C 91 % 0 lf 1014,2 hPa 0,0 l/m 0 min 0,0 UV-I 0 W/m 12,9 km/h (3 Bft)
02.02.2013 21:46 2,7 C 1,8 C 91 % 0 lf 1014,2 hPa 0,0 l/m 0 min 0,0 UV-I 0 W/m 7,7 km/h (2 Bft)
02.02.2013 21:48 2,7 C 1,8 C 91 % 0 lf 1014,4 hPa 0,0 l/m 0 min 0,0 UV-I 0 W/m 5,1 km/h (1 Bft)
02.02.2013 21:50 2,7 C 1,8 C 91 % 0 lf 1014,3 hPa 0,0 l/m 0 min 0,0 UV-I 0 W/m 7,7 km/h (2 Bft)
02.02.2013 21:52 2,7 C 1,8 C 91 % 0 lf 1014,3 hPa 0,0 l/m 0 min 0,0 UV-I 0 W/m 7,7 km/h (2 Bft)
02.02.2013 21:54 2,7 C 1,8 C 91 % 0 lf 1014,3 hPa 0,0 l/m 0 min 0,0 UV-I 0 W/m 15,4 km/h (3 Bft)
02.02.2013 21:56 2,7 C 1,8 C 91 % 0 lf 1014,3 hPa 0,0 l/m 0 min 0,0 UV-I 0 W/m 12,9 km/h (3 Bft)
02.02.2013 21:58 2,7 C 1,8 C 91 % 0 lf 1014,3 hPa 0,0 l/m 0 min 0,0 UV-I 0 W/m 2,6 km/h (1 Bft)
02.02.2013 22:00 2,7 C 1,8 C 91 % 0 lf 1014,4 hPa 0,0 l/m 0 min 0,0 UV-I 0 W/m 7,7 km/h (2 Bft)
02.02.2013 22:02 2,7 C 1,8 C 91 % 0 lf 1014,4 hPa 0,0 l/m 0 min 0,0 UV-I 0 W/m 10,3 km/h (2 Bft)
02.02.2013 22:06 2,8 C 1,8 C 91 % 0 lf 1014,4 hPa 0,0 l/m 0 min 0,0 UV-I 0 W/m 7,7 km/h (2 Bft)
02.02.2013 22:08 2,8 C 1,8 C 91 % 0 lf 1014,3 hPa 0,0 l/m 0 min 0,0 UV-I 0 W/m 18,0 km/h (3 Bft)
02.02.2013 22:10 2,8 C 1,8 C 91 % 0 lf 1014,4 hPa 0,0 l/m 0 min 0,0 UV-I 0 W/m 18,0 km/h (3 Bft)
02.02.2013 22:12 2,8 C 1,8 C 91 % 1 lf 1014,4 hPa 0,0 l/m 0 min 0,0 UV-I 0 W/m 12,9 km/h (3 Bft)
02.02.2013 22:14 2,8 C 1,8 C 90 % 0 lf 1014,4 hPa 0,0 l/m 0 min 0,0 UV-I 0 W/m 5,1 km/h (1 Bft)
02.02.2013 22:16 2,8 C 1,8 C 91 % 1 lf 1014,4 hPa 0,0 l/m 0 min 0,0 UV-I 0 W/m 10,3 km/h (2 Bft)
02.02.2013 22:18 2,8 C 1,8 C 91 % 0 lf 1014,4 hPa 0,0 l/m 0 min 0,0 UV-I 0 W/m 18,0 km/h (3 Bft)
02.02.2013 22:20 2,8 C 1,8 C 91 % 0 lf 1014,2 hPa 0,0 l/m 0 min 0,0 UV-I 0 W/m 7,7 km/h (2 Bft)
02.02.2013 22:22 2,8 C 1,8 C 91 % 0 lf 1014,3 hPa 0,0 l/m 0 min 0,0 UV-I 0 W/m 10,3 km/h (2 Bft)
02.02.2013 22:24 2,8 C 1,8 C 91 % 0 lf 1014,3 hPa 0,0 l/m 0 min 0,0 UV-I 0 W/m 12,9 km/h (3 Bft)
02.02.2013 22:26 2,8 C 1,8 C 91 % 2 lf 1014,4 hPa 0,0 l/m 0 min 0,0 UV-I 0 W/m 12,9 km/h (3 Bft)
02.02.2013 22:28 2,9 C 1,8 C 91 % 1 lf 1014,4 hPa 0,0 l/m 0 min 0,0 UV-I 0 W/m 5,1 km/h (1 Bft)
02.02.2013 22:30 2,9 C 1,8 C 91 % 8 lf 1014,5 hPa 0,0 l/m 0 min 0,0 UV-I 0 W/m 10,3 km/h (2 Bft)
02.02.2013 22:32 2,9 C 1,8 C 91 % 14 lf 1014,4 hPa 0,0 l/m 0 min 0,0 UV-I 0 W/m 12,9 km/h (3 Bft)
02.02.2013 22:34 2,9 C 1,8 C 91 % 15 lf 1014,5 hPa 0,0 l/m 0 min 0,0 UV-I 0 W/m 7,7 km/h (2 Bft)
02.02.2013 22:36 2,9 C 1,8 C 91 % 15 lf 1014,4 hPa 0,0 l/m 0 min 0,0 UV-I 0 W/m 7,7 km/h (2 Bft)
02.02.2013 22:38 2,9 C 1,2 C 91 % 15 lf 1014,5 hPa 0,0 l/m 0 min 0,0 UV-I 0 W/m 0,0 km/h (0 Bft)
02.02.2013 22:40 2,9 C 1,2 C 91 % 15 lf 1014,6 hPa 0,0 l/m 0 min 0,0 UV-I 0 W/m 2,6 km/h (1 Bft)
02.02.2013 22:42 2,9 C 1,2 C 91 % 15 lf 1014,8 hPa 0,0 l/m 0 min 0,0 UV-I 0 W/m 15,4 km/h (3 Bft)
02.02.2013 22:44 2,9 C 1,2 C 91 % 15 lf 1014,7 hPa 0,0 l/m 0 min 0,0 UV-I 0 W/m 10,3 km/h (2 Bft)
02.02.2013 22:46 2,9 C 1,2 C 91 % 14 lf 1014,8 hPa 0,0 l/m 0 min 0,0 UV-I 0 W/m 0,0 km/h (0 Bft)
02.02.2013 22:48 2,9 C 1,2 C 92 % 13 lf 1014,8 hPa 0,0 l/m 0 min 0,0 UV-I 0 W/m 7,7 km/h (2 Bft)
02.02.2013 22:50 2,9 C 1,8 C 92 % 10 lf 1014,7 hPa 0,0 l/m 0 min 0,0 UV-I 0 W/m 7,7 km/h (2 Bft)
02.02.2013 22:52 2,9 C 1,8 C 92 % 5 lf 1014,8 hPa 0,0 l/m 0 min 0,0 UV-I 0 W/m 10,3 km/h (2 Bft)
02.02.2013 22:54 2,9 C 1,8 C 92 % 3 lf 1014,8 hPa 0,0 l/m 0 min 0,0 UV-I 0 W/m 7,7 km/h (2 Bft)
02.02.2013 22:56 2,9 C 1,8 C 92 % 0 lf 1014,8 hPa 0,0 l/m 0 min 0,0 UV-I 0 W/m 7,7 km/h (2 Bft)
02.02.2013 22:58 2,9 C 1,8 C 92 % 0 lf 1014,8 hPa 0,0 l/m 0 min 0,0 UV-I 0 W/m 7,7 km/h (2 Bft)
02.02.2013 23:00 2,9 C 1,8 C 92 % 0 lf 1014,8 hPa 0,0 l/m 0 min 0,0 UV-I 0 W/m 15,4 km/h (3 Bft)
02.02.2013 23:02 3,0 C 1,8 C 92 % 0 lf 1014,9 hPa 0,0 l/m 0 min 0,0 UV-I 0 W/m 7,7 km/h (2 Bft)
02.02.2013 23:06 3,0 C 1,8 C 92 % 0 lf 1015,0 hPa 0,0 l/m 0 min 0,0 UV-I 0 W/m 15,4 km/h (3 Bft)
02.02.2013 23:08 3,0 C 1,8 C 92 % 0 lf 1015,0 hPa 0,0 l/m 0 min 0,0 UV-I 0 W/m 10,3 km/h (2 Bft)
02.02.2013 23:10 3,0 C 1,8 C 92 % 0 lf 1015,0 hPa 0,0 l/m 0 min 0,0 UV-I 0 W/m 15,4 km/h (3 Bft)
02.02.2013 23:12 3,1 C 1,8 C 92 % 1 lf 1015,0 hPa 0,0 l/m 0 min 0,0 UV-I 0 W/m 5,1 km/h (1 Bft)
02.02.2013 23:14 3,1 C 1,8 C 92 % 0 lf 1015,0 hPa 0,0 l/m 0 min 0,0 UV-I 0 W/m 7,7 km/h (2 Bft)
02.02.2013 23:16 3,1 C 1,8 C 92 % 0 lf 1015,1 hPa 0,0 l/m 0 min 0,0 UV-I 0 W/m 12,9 km/h (3 Bft)
02.02.2013 23:18 3,1 C 1,8 C 92 % 0 lf 1015,0 hPa 0,0 l/m 0 min 0,0 UV-I 0 W/m 0,0 km/h (0 Bft)
02.02.2013 23:20 3,1 C 1,8 C 92 % 1 lf 1015,0 hPa 0,0 l/m 0 min 0,0 UV-I 0 W/m 5,1 km/h (1 Bft)
02.02.2013 23:22 3,1 C 1,8 C 92 % 3 lf 1015,0 hPa 0,0 l/m 0 min 0,0 UV-I 0 W/m 0,0 km/h (0 Bft)
02.02.2013 23:24 3,1 C 1,8 C 92 % 1 lf 1015,0 hPa 0,0 l/m 0 min 0,0 UV-I 0 W/m 7,7 km/h (2 Bft)
02.02.2013 23:26 3,1 C 1,8 C 92 % 0 lf 1015,0 hPa 0,0 l/m 0 min 0,0 UV-I 0 W/m 0,0 km/h (0 Bft)
02.02.2013 23:28 3,1 C 1,8 C 92 % 15 lf 1014,9 hPa 0,0 l/m 0 min 0,0 UV-I 0 W/m 5,1 km/h (1 Bft)
02.02.2013 23:30 3,1 C 1,8 C 92 % 15 lf 1014,9 hPa 0,0 l/m 0 min 0,0 UV-I 0 W/m 5,1 km/h (1 Bft)
02.02.2013 23:32 3,1 C 1,8 C 92 % 15 lf 1014,9 hPa 0,0 l/m 0 min 0,0 UV-I 0 W/m 0,0 km/h (0 Bft)
02.02.2013 23:34 3,1 C 1,8 C 92 % 15 lf 1015,0 hPa 0,0 l/m 0 min 0,0 UV-I 0 W/m 7,7 km/h (2 Bft)
02.02.2013 23:36 3,1 C 1,8 C 92 % 15 lf 1014,9 hPa 0,0 l/m 0 min 0,0 UV-I 0 W/m 0,0 km/h (0 Bft)
02.02.2013 23:38 3,2 C 1,8 C 92 % 15 lf 1014,9 hPa 0,0 l/m 0 min 0,0 UV-I 0 W/m 2,6 km/h (1 Bft)
02.02.2013 23:40 3,1 C 1,2 C 93 % 15 lf 1014,9 hPa 0,0 l/m 0 min 0,0 UV-I 0 W/m 0,0 km/h (0 Bft)
02.02.2013 23:42 3,2 C 1,2 C 93 % 15 lf 1015,0 hPa 0,0 l/m 0 min 0,0 UV-I 0 W/m 7,7 km/h (2 Bft)
02.02.2013 23:44 3,1 C 1,2 C 93 % 15 lf 1014,9 hPa 0,0 l/m 0 min 0,0 UV-I 0 W/m 7,7 km/h (2 Bft)
02.02.2013 23:46 3,1 C 1,2 C 93 % 15 lf 1015,0 hPa 0,0 l/m 0 min 0,0 UV-I 0 W/m 5,1 km/h (1 Bft)
02.02.2013 23:48 3,1 C 1,8 C 93 % 15 lf 1015,0 hPa 0,0 l/m 0 min 0,0 UV-I 0 W/m 5,1 km/h (1 Bft)
02.02.2013 23:50 3,1 C 1,8 C 93 % 15 lf 1015,0 hPa 0,0 l/m 0 min 0,0 UV-I 0 W/m 10,3 km/h (2 Bft)
02.02.2013 23:52 3,1 C 1,8 C 93 % 15 lf 1015,1 hPa 0,0 l/m 0 min 0,0 UV-I 0 W/m 7,7 km/h (2 Bft)
02.02.2013 23:54 3,1 C 1,8 C 93 % 15 lf 1015,2 hPa 0,0 l/m 0 min 0,0 UV-I 0 W/m 5,1 km/h (1 Bft)
02.02.2013 23:56 3,1 C 1,8 C 93 % 15 lf 1015,2 hPa 0,0 l/m 0 min 0,0 UV-I 0 W/m 2,6 km/h (1 Bft)
02.02.2013 23:58 3,1 C 1,8 C 93 % 15 lf 1015,3 hPa 0,0 l/m 0 min 0,0 UV-I 0 W/m 0,0 km/h (0 Bft)
_ Min-Zeit 11:14 19:14 15:50 04:30 00:02 - - - - 00:08
Minimum _ 1,6 C -0,4 C 72 % 0 lf 995,1 hPa - - - - 0,0 km/h (0 Bft)
_ Max-Zeit 14:34 14:12 01:48 06:42 23:58 06:58 13:16 00:00 13:24 11:00
Maximum _ 5,0 C 4,0 C 99 % 15 lf 1015,3 hPa 0,2 l/m 2 min 0,0 UV-I 392 W/m 61,8 km/h
N-NW (7 Bft)
Durchschnitt _ 3,1 C 1,9 C 92 % 5 lf 1005,1 hPa #2,0 l/m #1:06 h 0,0 UV-I 86 W/m 10,3 km/h (2 Bft)
© 2013 W. Hausmann